<?xml version='1.0' encoding='UTF-8'?>
<gpx version="1.1" creator="https://www.komoot.de" xmlns="http://www.topografix.com/GPX/1/1" xmlns:xsi="http://www.w3.org/2001/XMLSchema-instance" xsi:schemaLocation="http://www.topografix.com/GPX/1/1 http://www.topografix.com/GPX/1/1/gpx.xsd">
  <metadata>
    <name>42_580Haenner</name>
    <author>
      <link href="https://www.komoot.de">
        <text>komoot</text>
        <type>text/html</type>
      </link>
    </author>
  </metadata>
  <trk>
    <name>42_580Haenner</name>
    <trkseg>
      <trkpt lat="47.543233" lon="7.872082">
        <ele>352.820051</ele>
        <time>2021-11-07T12:34:58.471Z</time>
      </trkpt>
      <trkpt lat="47.543233" lon="7.872082">
        <ele>352.820051</ele>
        <time>2021-11-07T12:34:58.475Z</time>
      </trkpt>
      <trkpt lat="47.543251" lon="7.872152">
        <ele>352.820051</ele>
        <time>2021-11-07T12:35:01.536Z</time>
      </trkpt>
      <trkpt lat="47.543332" lon="7.872237">
        <ele>352.820051</ele>
        <time>2021-11-07T12:35:04.159Z</time>
      </trkpt>
      <trkpt lat="47.544390" lon="7.872423">
        <ele>354.966021</ele>
        <time>2021-11-07T12:35:44.562Z</time>
      </trkpt>
      <trkpt lat="47.544883" lon="7.872555">
        <ele>358.369000</ele>
        <time>2021-11-07T12:36:07.032Z</time>
      </trkpt>
      <trkpt lat="47.545131" lon="7.872664">
        <ele>360.126123</ele>
        <time>2021-11-07T12:36:18.036Z</time>
      </trkpt>
      <trkpt lat="47.545375" lon="7.872836">
        <ele>361.961563</ele>
        <time>2021-11-07T12:36:28.977Z</time>
      </trkpt>
      <trkpt lat="47.545478" lon="7.872968">
        <ele>362.886645</ele>
        <time>2021-11-07T12:36:35.785Z</time>
      </trkpt>
      <trkpt lat="47.545515" lon="7.873015">
        <ele>363.217707</ele>
        <time>2021-11-07T12:36:37.741Z</time>
      </trkpt>
      <trkpt lat="47.545746" lon="7.873302">
        <ele>365.225061</ele>
        <time>2021-11-07T12:36:50.941Z</time>
      </trkpt>
      <trkpt lat="47.545934" lon="7.873549">
        <ele>366.629089</ele>
        <time>2021-11-07T12:37:01.041Z</time>
      </trkpt>
      <trkpt lat="47.546077" lon="7.873763">
        <ele>367.764809</ele>
        <time>2021-11-07T12:37:10.237Z</time>
      </trkpt>
      <trkpt lat="47.546135" lon="7.873859">
        <ele>368.250731</ele>
        <time>2021-11-07T12:37:13.476Z</time>
      </trkpt>
      <trkpt lat="47.546309" lon="7.874154">
        <ele>369.728271</ele>
        <time>2021-11-07T12:37:24.591Z</time>
      </trkpt>
      <trkpt lat="47.547126" lon="7.875801">
        <ele>375.891878</ele>
        <time>2021-11-07T12:38:10.352Z</time>
      </trkpt>
      <trkpt lat="47.547574" lon="7.876801">
        <ele>377.441773</ele>
        <time>2021-11-07T12:38:29.348Z</time>
      </trkpt>
      <trkpt lat="47.547992" lon="7.877974">
        <ele>377.628643</ele>
        <time>2021-11-07T12:38:42.149Z</time>
      </trkpt>
      <trkpt lat="47.548234" lon="7.878638">
        <ele>376.228376</ele>
        <time>2021-11-07T12:38:47.463Z</time>
      </trkpt>
      <trkpt lat="47.548422" lon="7.878959">
        <ele>375.439756</ele>
        <time>2021-11-07T12:38:50.313Z</time>
      </trkpt>
      <trkpt lat="47.548718" lon="7.879258">
        <ele>374.454860</ele>
        <time>2021-11-07T12:38:53.867Z</time>
      </trkpt>
      <trkpt lat="47.549140" lon="7.879391">
        <ele>373.104303</ele>
        <time>2021-11-07T12:38:58.052Z</time>
      </trkpt>
      <trkpt lat="47.549318" lon="7.879398">
        <ele>372.359168</ele>
        <time>2021-11-07T12:38:59.678Z</time>
      </trkpt>
      <trkpt lat="47.549327" lon="7.879547">
        <ele>371.936640</ele>
        <time>2021-11-07T12:39:00.668Z</time>
      </trkpt>
      <trkpt lat="47.549647" lon="7.880541">
        <ele>368.826120</ele>
        <time>2021-11-07T12:39:07.835Z</time>
      </trkpt>
      <trkpt lat="47.549726" lon="7.880786">
        <ele>368.059217</ele>
        <time>2021-11-07T12:39:09.597Z</time>
      </trkpt>
      <trkpt lat="47.549927" lon="7.881490">
        <ele>365.918639</ele>
        <time>2021-11-07T12:39:14.635Z</time>
      </trkpt>
      <trkpt lat="47.550234" lon="7.883221">
        <ele>361.457599</ele>
        <time>2021-11-07T12:39:26.893Z</time>
      </trkpt>
      <trkpt lat="47.550332" lon="7.884727">
        <ele>357.070974</ele>
        <time>2021-11-07T12:39:36.718Z</time>
      </trkpt>
      <trkpt lat="47.550391" lon="7.885109">
        <ele>355.746362</ele>
        <time>2021-11-07T12:39:39.317Z</time>
      </trkpt>
      <trkpt lat="47.550391" lon="7.885109">
        <ele>355.746362</ele>
        <time>2021-11-07T12:39:39.338Z</time>
      </trkpt>
      <trkpt lat="47.550548" lon="7.885799">
        <ele>353.285064</ele>
        <time>2021-11-07T12:39:43.983Z</time>
      </trkpt>
      <trkpt lat="47.550677" lon="7.886476">
        <ele>350.907235</ele>
        <time>2021-11-07T12:39:48.431Z</time>
      </trkpt>
      <trkpt lat="47.550758" lon="7.887295">
        <ele>347.683636</ele>
        <time>2021-11-07T12:39:53.547Z</time>
      </trkpt>
      <trkpt lat="47.550789" lon="7.887816">
        <ele>345.588189</ele>
        <time>2021-11-07T12:39:56.833Z</time>
      </trkpt>
      <trkpt lat="47.550831" lon="7.888611">
        <ele>342.393336</ele>
        <time>2021-11-07T12:40:01.797Z</time>
      </trkpt>
      <trkpt lat="47.550833" lon="7.889069">
        <ele>340.558354</ele>
        <time>2021-11-07T12:40:04.606Z</time>
      </trkpt>
      <trkpt lat="47.550915" lon="7.890600">
        <ele>334.506454</ele>
        <time>2021-11-07T12:40:13.999Z</time>
      </trkpt>
      <trkpt lat="47.550904" lon="7.891725">
        <ele>330.084443</ele>
        <time>2021-11-07T12:40:21.003Z</time>
      </trkpt>
      <trkpt lat="47.550892" lon="7.893176">
        <ele>327.160240</ele>
        <time>2021-11-07T12:40:30.615Z</time>
      </trkpt>
      <trkpt lat="47.550908" lon="7.894308">
        <ele>325.246962</ele>
        <time>2021-11-07T12:40:39.821Z</time>
      </trkpt>
      <trkpt lat="47.550878" lon="7.895158">
        <ele>324.209941</ele>
        <time>2021-11-07T12:40:47.006Z</time>
      </trkpt>
      <trkpt lat="47.550838" lon="7.895509">
        <ele>323.864008</ele>
        <time>2021-11-07T12:40:50.169Z</time>
      </trkpt>
      <trkpt lat="47.550660" lon="7.896255">
        <ele>323.095066</ele>
        <time>2021-11-07T12:40:56.658Z</time>
      </trkpt>
      <trkpt lat="47.550639" lon="7.896345">
        <ele>323.002524</ele>
        <time>2021-11-07T12:40:57.845Z</time>
      </trkpt>
      <trkpt lat="47.550648" lon="7.896481">
        <ele>322.869723</ele>
        <time>2021-11-07T12:40:58.800Z</time>
      </trkpt>
      <trkpt lat="47.550819" lon="7.898109">
        <ele>319.854293</ele>
        <time>2021-11-07T12:41:10.548Z</time>
      </trkpt>
      <trkpt lat="47.550801" lon="7.900244">
        <ele>314.421240</ele>
        <time>2021-11-07T12:41:24.386Z</time>
      </trkpt>
      <trkpt lat="47.550769" lon="7.901362">
        <ele>311.391120</ele>
        <time>2021-11-07T12:41:31.657Z</time>
      </trkpt>
      <trkpt lat="47.550757" lon="7.901591">
        <ele>310.769151</ele>
        <time>2021-11-07T12:41:33.793Z</time>
      </trkpt>
      <trkpt lat="47.550688" lon="7.902451">
        <ele>308.423983</ele>
        <time>2021-11-07T12:41:42.228Z</time>
      </trkpt>
      <trkpt lat="47.550498" lon="7.903445">
        <ele>305.768887</ele>
        <time>2021-11-07T12:41:52.478Z</time>
      </trkpt>
      <trkpt lat="47.550302" lon="7.904164">
        <ele>303.782493</ele>
        <time>2021-11-07T12:41:59.737Z</time>
      </trkpt>
      <trkpt lat="47.550025" lon="7.904774">
        <ele>301.899122</ele>
        <time>2021-11-07T12:42:06.662Z</time>
      </trkpt>
      <trkpt lat="47.549868" lon="7.905010">
        <ele>301.122428</ele>
        <time>2021-11-07T12:42:09.794Z</time>
      </trkpt>
      <trkpt lat="47.549867" lon="7.905155">
        <ele>300.820275</ele>
        <time>2021-11-07T12:42:11.191Z</time>
      </trkpt>
      <trkpt lat="47.550067" lon="7.905245">
        <ele>300.174981</ele>
        <time>2021-11-07T12:42:14.116Z</time>
      </trkpt>
      <trkpt lat="47.550283" lon="7.905413">
        <ele>299.421844</ele>
        <time>2021-11-07T12:42:17.566Z</time>
      </trkpt>
      <trkpt lat="47.550497" lon="7.905558">
        <ele>298.695371</ele>
        <time>2021-11-07T12:42:20.924Z</time>
      </trkpt>
      <trkpt lat="47.549539" lon="7.908625">
        <ele>293.183996</ele>
        <time>2021-11-07T12:42:45.381Z</time>
      </trkpt>
      <trkpt lat="47.549520" lon="7.908678">
        <ele>293.104185</ele>
        <time>2021-11-07T12:42:45.893Z</time>
      </trkpt>
      <trkpt lat="47.549332" lon="7.909303">
        <ele>292.251838</ele>
        <time>2021-11-07T12:42:51.435Z</time>
      </trkpt>
      <trkpt lat="47.549205" lon="7.909723">
        <ele>291.881423</ele>
        <time>2021-11-07T12:42:55.250Z</time>
      </trkpt>
      <trkpt lat="47.549195" lon="7.909756">
        <ele>291.852308</ele>
        <time>2021-11-07T12:42:55.514Z</time>
      </trkpt>
      <trkpt lat="47.549102" lon="7.910058">
        <ele>291.585136</ele>
        <time>2021-11-07T12:42:58.240Z</time>
      </trkpt>
      <trkpt lat="47.549012" lon="7.910340">
        <ele>291.334070</ele>
        <time>2021-11-07T12:43:00.735Z</time>
      </trkpt>
      <trkpt lat="47.548412" lon="7.912168">
        <ele>289.846331</ele>
        <time>2021-11-07T12:43:17.064Z</time>
      </trkpt>
      <trkpt lat="47.548027" lon="7.913334">
        <ele>289.113094</ele>
        <time>2021-11-07T12:43:27.825Z</time>
      </trkpt>
      <trkpt lat="47.547994" lon="7.913433">
        <ele>289.050723</ele>
        <time>2021-11-07T12:43:28.746Z</time>
      </trkpt>
      <trkpt lat="47.547423" lon="7.915080">
        <ele>288.772960</ele>
        <time>2021-11-07T12:43:46.234Z</time>
      </trkpt>
      <trkpt lat="47.547113" lon="7.915971">
        <ele>288.841408</ele>
        <time>2021-11-07T12:43:56.872Z</time>
      </trkpt>
      <trkpt lat="47.547091" lon="7.916039">
        <ele>288.846557</ele>
        <time>2021-11-07T12:43:57.922Z</time>
      </trkpt>
      <trkpt lat="47.547032" lon="7.916218">
        <ele>288.860159</ele>
        <time>2021-11-07T12:44:00.193Z</time>
      </trkpt>
      <trkpt lat="47.546821" lon="7.916867">
        <ele>289.076984</ele>
        <time>2021-11-07T12:44:08.608Z</time>
      </trkpt>
      <trkpt lat="47.546262" lon="7.919081">
        <ele>289.934453</ele>
        <time>2021-11-07T12:44:36.269Z</time>
      </trkpt>
      <trkpt lat="47.546128" lon="7.919617">
        <ele>290.079177</ele>
        <time>2021-11-07T12:44:41.697Z</time>
      </trkpt>
      <trkpt lat="47.545973" lon="7.920313">
        <ele>290.264749</ele>
        <time>2021-11-07T12:44:49.116Z</time>
      </trkpt>
      <trkpt lat="47.545913" lon="7.920765">
        <ele>290.381387</ele>
        <time>2021-11-07T12:44:53.874Z</time>
      </trkpt>
      <trkpt lat="47.545881" lon="7.921096">
        <ele>290.466052</ele>
        <time>2021-11-07T12:44:57.841Z</time>
      </trkpt>
      <trkpt lat="47.545810" lon="7.921755">
        <ele>291.064236</ele>
        <time>2021-11-07T12:45:06.451Z</time>
      </trkpt>
      <trkpt lat="47.545778" lon="7.921947">
        <ele>291.358832</ele>
        <time>2021-11-07T12:45:09.404Z</time>
      </trkpt>
      <trkpt lat="47.545714" lon="7.922249">
        <ele>291.830347</ele>
        <time>2021-11-07T12:45:13.258Z</time>
      </trkpt>
      <trkpt lat="47.545699" lon="7.922325">
        <ele>291.948298</ele>
        <time>2021-11-07T12:45:14.456Z</time>
      </trkpt>
      <trkpt lat="47.545690" lon="7.922369">
        <ele>292.016785</ele>
        <time>2021-11-07T12:45:15.527Z</time>
      </trkpt>
      <trkpt lat="47.545641" lon="7.922610">
        <ele>292.391716</ele>
        <time>2021-11-07T12:45:18.883Z</time>
      </trkpt>
      <trkpt lat="47.545587" lon="7.922895">
        <ele>292.832666</ele>
        <time>2021-11-07T12:45:23.715Z</time>
      </trkpt>
      <trkpt lat="47.545553" lon="7.923142">
        <ele>293.208176</ele>
        <time>2021-11-07T12:45:27.325Z</time>
      </trkpt>
      <trkpt lat="47.545536" lon="7.923407">
        <ele>293.604705</ele>
        <time>2021-11-07T12:45:32.201Z</time>
      </trkpt>
      <trkpt lat="47.545521" lon="7.923709">
        <ele>294.055788</ele>
        <time>2021-11-07T12:45:37.368Z</time>
      </trkpt>
      <trkpt lat="47.545481" lon="7.924396">
        <ele>295.472672</ele>
        <time>2021-11-07T12:45:51.971Z</time>
      </trkpt>
      <trkpt lat="47.545466" lon="7.924880">
        <ele>296.690898</ele>
        <time>2021-11-07T12:46:03.278Z</time>
      </trkpt>
      <trkpt lat="47.545446" lon="7.925350">
        <ele>297.874987</ele>
        <time>2021-11-07T12:46:13.653Z</time>
      </trkpt>
      <trkpt lat="47.545417" lon="7.925848">
        <ele>299.131783</ele>
        <time>2021-11-07T12:46:24.132Z</time>
      </trkpt>
      <trkpt lat="47.545409" lon="7.926773">
        <ele>301.259797</ele>
        <time>2021-11-07T12:46:41.333Z</time>
      </trkpt>
      <trkpt lat="47.545407" lon="7.927001">
        <ele>301.363152</ele>
        <time>2021-11-07T12:46:45.141Z</time>
      </trkpt>
      <trkpt lat="47.545406" lon="7.927306">
        <ele>301.501403</ele>
        <time>2021-11-07T12:46:49.746Z</time>
      </trkpt>
      <trkpt lat="47.545421" lon="7.927686">
        <ele>301.673942</ele>
        <time>2021-11-07T12:46:55.282Z</time>
      </trkpt>
      <trkpt lat="47.545475" lon="7.928419">
        <ele>302.008166</ele>
        <time>2021-11-07T12:47:04.599Z</time>
      </trkpt>
      <trkpt lat="47.545563" lon="7.929641">
        <ele>302.013987</ele>
        <time>2021-11-07T12:47:14.478Z</time>
      </trkpt>
      <trkpt lat="47.545661" lon="7.930955">
        <ele>300.272823</ele>
        <time>2021-11-07T12:47:23.874Z</time>
      </trkpt>
      <trkpt lat="47.545696" lon="7.931497">
        <ele>299.555712</ele>
        <time>2021-11-07T12:47:27.843Z</time>
      </trkpt>
      <trkpt lat="47.545721" lon="7.931992">
        <ele>298.912784</ele>
        <time>2021-11-07T12:47:31.636Z</time>
      </trkpt>
      <trkpt lat="47.545724" lon="7.932758">
        <ele>298.771415</ele>
        <time>2021-11-07T12:47:37.845Z</time>
      </trkpt>
      <trkpt lat="47.545702" lon="7.933290">
        <ele>298.673049</ele>
        <time>2021-11-07T12:47:42.488Z</time>
      </trkpt>
      <trkpt lat="47.545674" lon="7.933625">
        <ele>298.610752</ele>
        <time>2021-11-07T12:47:45.688Z</time>
      </trkpt>
      <trkpt lat="47.545457" lon="7.935110">
        <ele>298.910966</ele>
        <time>2021-11-07T12:48:03.823Z</time>
      </trkpt>
      <trkpt lat="47.545074" lon="7.936484">
        <ele>300.359786</ele>
        <time>2021-11-07T12:48:25.350Z</time>
      </trkpt>
      <trkpt lat="47.544903" lon="7.936917">
        <ele>300.848719</ele>
        <time>2021-11-07T12:48:32.667Z</time>
      </trkpt>
      <trkpt lat="47.544705" lon="7.937395">
        <ele>301.489530</ele>
        <time>2021-11-07T12:48:40.851Z</time>
      </trkpt>
      <trkpt lat="47.544472" lon="7.937932">
        <ele>302.267801</ele>
        <time>2021-11-07T12:48:50.258Z</time>
      </trkpt>
      <trkpt lat="47.543826" lon="7.939433">
        <ele>304.399788</ele>
        <time>2021-11-07T12:49:17.140Z</time>
      </trkpt>
      <trkpt lat="47.543435" lon="7.940670">
        <ele>305.689467</ele>
        <time>2021-11-07T12:49:37.100Z</time>
      </trkpt>
      <trkpt lat="47.543161" lon="7.942213">
        <ele>306.682833</ele>
        <time>2021-11-07T12:49:57.950Z</time>
      </trkpt>
      <trkpt lat="47.543007" lon="7.943867">
        <ele>306.294749</ele>
        <time>2021-11-07T12:50:13.494Z</time>
      </trkpt>
      <trkpt lat="47.542913" lon="7.945267">
        <ele>304.738166</ele>
        <time>2021-11-07T12:50:24.253Z</time>
      </trkpt>
      <trkpt lat="47.542872" lon="7.945781">
        <ele>303.867513</ele>
        <time>2021-11-07T12:50:27.850Z</time>
      </trkpt>
      <trkpt lat="47.542875" lon="7.946089">
        <ele>303.349349</ele>
        <time>2021-11-07T12:50:29.940Z</time>
      </trkpt>
      <trkpt lat="47.542902" lon="7.946514">
        <ele>302.631265</ele>
        <time>2021-11-07T12:50:32.820Z</time>
      </trkpt>
      <trkpt lat="47.542943" lon="7.946806">
        <ele>302.129557</ele>
        <time>2021-11-07T12:50:34.866Z</time>
      </trkpt>
      <trkpt lat="47.542974" lon="7.946965">
        <ele>301.851159</ele>
        <time>2021-11-07T12:50:36.077Z</time>
      </trkpt>
      <trkpt lat="47.542979" lon="7.946989">
        <ele>301.808908</ele>
        <time>2021-11-07T12:50:36.232Z</time>
      </trkpt>
      <trkpt lat="47.543007" lon="7.947104">
        <ele>301.634377</ele>
        <time>2021-11-07T12:50:37.081Z</time>
      </trkpt>
      <trkpt lat="47.543087" lon="7.947317">
        <ele>301.384946</ele>
        <time>2021-11-07T12:50:38.823Z</time>
      </trkpt>
      <trkpt lat="47.543191" lon="7.947615">
        <ele>301.041657</ele>
        <time>2021-11-07T12:50:41.265Z</time>
      </trkpt>
      <trkpt lat="47.543242" lon="7.947745">
        <ele>300.887794</ele>
        <time>2021-11-07T12:50:42.395Z</time>
      </trkpt>
      <trkpt lat="47.543273" lon="7.947816">
        <ele>300.801266</ele>
        <time>2021-11-07T12:50:43.022Z</time>
      </trkpt>
      <trkpt lat="47.543358" lon="7.947967">
        <ele>300.600071</ele>
        <time>2021-11-07T12:50:44.465Z</time>
      </trkpt>
      <trkpt lat="47.543455" lon="7.948127">
        <ele>300.380005</ele>
        <time>2021-11-07T12:50:46.132Z</time>
      </trkpt>
      <trkpt lat="47.543532" lon="7.948214">
        <ele>300.233203</ele>
        <time>2021-11-07T12:50:47.212Z</time>
      </trkpt>
      <trkpt lat="47.543579" lon="7.948287">
        <ele>300.129973</ele>
        <time>2021-11-07T12:50:47.976Z</time>
      </trkpt>
      <trkpt lat="47.543760" lon="7.948548">
        <ele>299.747066</ele>
        <time>2021-11-07T12:50:50.865Z</time>
      </trkpt>
      <trkpt lat="47.543864" lon="7.948694">
        <ele>299.529866</ele>
        <time>2021-11-07T12:50:52.536Z</time>
      </trkpt>
      <trkpt lat="47.544239" lon="7.949202">
        <ele>299.014646</ele>
        <time>2021-11-07T12:50:59.899Z</time>
      </trkpt>
      <trkpt lat="47.544521" lon="7.949558">
        <ele>299.181972</ele>
        <time>2021-11-07T12:51:06.072Z</time>
      </trkpt>
      <trkpt lat="47.544901" lon="7.950044">
        <ele>299.408694</ele>
        <time>2021-11-07T12:51:15.230Z</time>
      </trkpt>
      <trkpt lat="47.545166" lon="7.950366">
        <ele>299.563480</ele>
        <time>2021-11-07T12:51:21.560Z</time>
      </trkpt>
      <trkpt lat="47.545434" lon="7.950668">
        <ele>299.715549</ele>
        <time>2021-11-07T12:51:27.345Z</time>
      </trkpt>
      <trkpt lat="47.545542" lon="7.950842">
        <ele>299.760093</ele>
        <time>2021-11-07T12:51:29.828Z</time>
      </trkpt>
      <trkpt lat="47.545667" lon="7.950979">
        <ele>299.729738</ele>
        <time>2021-11-07T12:51:32.365Z</time>
      </trkpt>
      <trkpt lat="47.545737" lon="7.951055">
        <ele>299.712795</ele>
        <time>2021-11-07T12:51:33.637Z</time>
      </trkpt>
      <trkpt lat="47.545876" lon="7.951233">
        <ele>299.676927</ele>
        <time>2021-11-07T12:51:36.381Z</time>
      </trkpt>
      <trkpt lat="47.546112" lon="7.951485">
        <ele>299.620134</ele>
        <time>2021-11-07T12:51:40.513Z</time>
      </trkpt>
      <trkpt lat="47.546164" lon="7.951520">
        <ele>299.608984</ele>
        <time>2021-11-07T12:51:41.352Z</time>
      </trkpt>
      <trkpt lat="47.546212" lon="7.951535">
        <ele>299.599407</ele>
        <time>2021-11-07T12:51:42.067Z</time>
      </trkpt>
      <trkpt lat="47.546231" lon="7.951558">
        <ele>299.594617</ele>
        <time>2021-11-07T12:51:42.384Z</time>
      </trkpt>
      <trkpt lat="47.546421" lon="7.951793">
        <ele>299.546297</ele>
        <time>2021-11-07T12:51:45.688Z</time>
      </trkpt>
      <trkpt lat="47.546634" lon="7.952024">
        <ele>299.494764</ele>
        <time>2021-11-07T12:51:49.117Z</time>
      </trkpt>
      <trkpt lat="47.546695" lon="7.952091">
        <ele>299.479939</ele>
        <time>2021-11-07T12:51:50.081Z</time>
      </trkpt>
      <trkpt lat="47.546776" lon="7.952185">
        <ele>299.459852</ele>
        <time>2021-11-07T12:51:51.431Z</time>
      </trkpt>
      <trkpt lat="47.546935" lon="7.952372">
        <ele>299.420220</ele>
        <time>2021-11-07T12:51:54.079Z</time>
      </trkpt>
      <trkpt lat="47.547090" lon="7.952543">
        <ele>299.338093</ele>
        <time>2021-11-07T12:51:56.690Z</time>
      </trkpt>
      <trkpt lat="47.547400" lon="7.952910">
        <ele>299.161697</ele>
        <time>2021-11-07T12:52:02.093Z</time>
      </trkpt>
      <trkpt lat="47.547458" lon="7.952975">
        <ele>299.129369</ele>
        <time>2021-11-07T12:52:03.079Z</time>
      </trkpt>
      <trkpt lat="47.547550" lon="7.953078">
        <ele>299.078109</ele>
        <time>2021-11-07T12:52:04.689Z</time>
      </trkpt>
      <trkpt lat="47.547624" lon="7.953160">
        <ele>299.037031</ele>
        <time>2021-11-07T12:52:05.944Z</time>
      </trkpt>
      <trkpt lat="47.547797" lon="7.953355">
        <ele>298.940401</ele>
        <time>2021-11-07T12:52:08.948Z</time>
      </trkpt>
      <trkpt lat="47.547871" lon="7.953437">
        <ele>298.899323</ele>
        <time>2021-11-07T12:52:10.242Z</time>
      </trkpt>
      <trkpt lat="47.547994" lon="7.953584">
        <ele>298.829074</ele>
        <time>2021-11-07T12:52:12.423Z</time>
      </trkpt>
      <trkpt lat="47.548115" lon="7.953729">
        <ele>298.759894</ele>
        <time>2021-11-07T12:52:14.573Z</time>
      </trkpt>
      <trkpt lat="47.548251" lon="7.953895">
        <ele>298.681564</ele>
        <time>2021-11-07T12:52:16.973Z</time>
      </trkpt>
      <trkpt lat="47.548335" lon="7.953779">
        <ele>298.630518</ele>
        <time>2021-11-07T12:52:18.878Z</time>
      </trkpt>
      <trkpt lat="47.549296" lon="7.953268">
        <ele>297.497855</ele>
        <time>2021-11-07T12:52:37.195Z</time>
      </trkpt>
      <trkpt lat="47.549442" lon="7.953195">
        <ele>297.323943</ele>
        <time>2021-11-07T12:52:39.746Z</time>
      </trkpt>
      <trkpt lat="47.549640" lon="7.953086">
        <ele>297.085544</ele>
        <time>2021-11-07T12:52:43.460Z</time>
      </trkpt>
      <trkpt lat="47.549673" lon="7.953076">
        <ele>297.047528</ele>
        <time>2021-11-07T12:52:44.018Z</time>
      </trkpt>
      <trkpt lat="47.549687" lon="7.953071">
        <ele>297.031274</ele>
        <time>2021-11-07T12:52:44.210Z</time>
      </trkpt>
      <trkpt lat="47.550567" lon="7.953069">
        <ele>295.535486</ele>
        <time>2021-11-07T12:52:58.386Z</time>
      </trkpt>
      <trkpt lat="47.550656" lon="7.953072">
        <ele>295.343135</ele>
        <time>2021-11-07T12:52:59.703Z</time>
      </trkpt>
      <trkpt lat="47.550967" lon="7.953063">
        <ele>294.671036</ele>
        <time>2021-11-07T12:53:04.467Z</time>
      </trkpt>
      <trkpt lat="47.551254" lon="7.952986">
        <ele>294.040836</ele>
        <time>2021-11-07T12:53:08.856Z</time>
      </trkpt>
      <trkpt lat="47.551295" lon="7.952900">
        <ele>293.887289</ele>
        <time>2021-11-07T12:53:09.919Z</time>
      </trkpt>
      <trkpt lat="47.551334" lon="7.952777">
        <ele>293.689110</ele>
        <time>2021-11-07T12:53:12.594Z</time>
      </trkpt>
      <trkpt lat="47.551339" lon="7.952761">
        <ele>293.663397</ele>
        <time>2021-11-07T12:53:12.965Z</time>
      </trkpt>
      <trkpt lat="47.551381" lon="7.952341">
        <ele>293.044222</ele>
        <time>2021-11-07T12:53:21.746Z</time>
      </trkpt>
      <trkpt lat="47.551506" lon="7.950255">
        <ele>291.060773</ele>
        <time>2021-11-07T12:54:07.277Z</time>
      </trkpt>
      <trkpt lat="47.551525" lon="7.950027">
        <ele>290.858041</ele>
        <time>2021-11-07T12:54:12.761Z</time>
      </trkpt>
      <trkpt lat="47.551581" lon="7.949830">
        <ele>290.669403</ele>
        <time>2021-11-07T12:54:17.541Z</time>
      </trkpt>
      <trkpt lat="47.551581" lon="7.949830">
        <ele>290.669403</ele>
        <time>2021-11-07T12:54:17.567Z</time>
      </trkpt>
      <trkpt lat="47.551581" lon="7.949830">
        <ele>290.669403</ele>
        <time>2021-11-07T12:54:17.572Z</time>
      </trkpt>
      <trkpt lat="47.551673" lon="7.949634">
        <ele>290.458722</ele>
        <time>2021-11-07T12:54:23.662Z</time>
      </trkpt>
      <trkpt lat="47.551794" lon="7.949387">
        <ele>290.397180</ele>
        <time>2021-11-07T12:54:30.804Z</time>
      </trkpt>
      <trkpt lat="47.552010" lon="7.949039">
        <ele>290.520881</ele>
        <time>2021-11-07T12:54:42.708Z</time>
      </trkpt>
      <trkpt lat="47.552049" lon="7.948982">
        <ele>290.542118</ele>
        <time>2021-11-07T12:54:44.888Z</time>
      </trkpt>
      <trkpt lat="47.552094" lon="7.948926">
        <ele>290.564899</ele>
        <time>2021-11-07T12:54:47.281Z</time>
      </trkpt>
      <trkpt lat="47.552094" lon="7.948926">
        <ele>290.564899</ele>
        <time>2021-11-07T12:54:47.316Z</time>
      </trkpt>
      <trkpt lat="47.552202" lon="7.949003">
        <ele>290.611362</ele>
        <time>2021-11-07T12:54:52.121Z</time>
      </trkpt>
      <trkpt lat="47.552351" lon="7.949099">
        <ele>290.674349</ele>
        <time>2021-11-07T12:54:58.081Z</time>
      </trkpt>
      <trkpt lat="47.552382" lon="7.949119">
        <ele>290.687456</ele>
        <time>2021-11-07T12:54:59.557Z</time>
      </trkpt>
      <trkpt lat="47.552518" lon="7.949236">
        <ele>290.748421</ele>
        <time>2021-11-07T12:55:06.086Z</time>
      </trkpt>
      <trkpt lat="47.552587" lon="7.949162">
        <ele>290.781442</ele>
        <time>2021-11-07T12:55:09.630Z</time>
      </trkpt>
      <trkpt lat="47.552587" lon="7.949162">
        <ele>290.781442</ele>
        <time>2021-11-07T12:55:09.651Z</time>
      </trkpt>
      <trkpt lat="47.552587" lon="7.949162">
        <ele>290.781442</ele>
        <time>2021-11-07T12:55:09.651Z</time>
      </trkpt>
      <trkpt lat="47.553112" lon="7.948664">
        <ele>291.023101</ele>
        <time>2021-11-07T12:55:21.204Z</time>
      </trkpt>
      <trkpt lat="47.553637" lon="7.948167">
        <ele>291.218223</ele>
        <time>2021-11-07T12:55:32.750Z</time>
      </trkpt>
      <trkpt lat="47.553758" lon="7.948048">
        <ele>291.262524</ele>
        <time>2021-11-07T12:55:38.537Z</time>
      </trkpt>
      <trkpt lat="47.554138" lon="7.947710">
        <ele>291.397723</ele>
        <time>2021-11-07T12:55:55.250Z</time>
      </trkpt>
      <trkpt lat="47.554282" lon="7.947594">
        <ele>291.447721</ele>
        <time>2021-11-07T12:56:01.604Z</time>
      </trkpt>
      <trkpt lat="47.554372" lon="7.947483">
        <ele>291.483441</ele>
        <time>2021-11-07T12:56:06.038Z</time>
      </trkpt>
      <trkpt lat="47.554411" lon="7.947434">
        <ele>291.499039</ele>
        <time>2021-11-07T12:56:07.954Z</time>
      </trkpt>
      <trkpt lat="47.554446" lon="7.947485">
        <ele>291.514013</ele>
        <time>2021-11-07T12:56:08.726Z</time>
      </trkpt>
      <trkpt lat="47.554475" lon="7.947529">
        <ele>291.526674</ele>
        <time>2021-11-07T12:56:09.410Z</time>
      </trkpt>
      <trkpt lat="47.554517" lon="7.947576">
        <ele>291.542729</ele>
        <time>2021-11-07T12:56:10.284Z</time>
      </trkpt>
      <trkpt lat="47.554563" lon="7.947632">
        <ele>291.560890</ele>
        <time>2021-11-07T12:56:11.237Z</time>
      </trkpt>
      <trkpt lat="47.554614" lon="7.947707">
        <ele>291.582809</ele>
        <time>2021-11-07T12:56:12.372Z</time>
      </trkpt>
      <trkpt lat="47.554731" lon="7.947945">
        <ele>291.513743</ele>
        <time>2021-11-07T12:56:15.281Z</time>
      </trkpt>
      <trkpt lat="47.554749" lon="7.947993">
        <ele>291.494398</ele>
        <time>2021-11-07T12:56:15.862Z</time>
      </trkpt>
      <trkpt lat="47.554846" lon="7.948223">
        <ele>291.398852</ele>
        <time>2021-11-07T12:56:18.462Z</time>
      </trkpt>
      <trkpt lat="47.554900" lon="7.948352">
        <ele>291.345375</ele>
        <time>2021-11-07T12:56:19.824Z</time>
      </trkpt>
      <trkpt lat="47.554929" lon="7.948424">
        <ele>291.315837</ele>
        <time>2021-11-07T12:56:20.602Z</time>
      </trkpt>
      <trkpt lat="47.555270" lon="7.949203">
        <ele>290.988734</ele>
        <time>2021-11-07T12:56:28.771Z</time>
      </trkpt>
      <trkpt lat="47.555335" lon="7.949348">
        <ele>290.927411</ele>
        <time>2021-11-07T12:56:30.273Z</time>
      </trkpt>
      <trkpt lat="47.555388" lon="7.949465">
        <ele>290.877770</ele>
        <time>2021-11-07T12:56:31.493Z</time>
      </trkpt>
      <trkpt lat="47.555429" lon="7.949557">
        <ele>290.838931</ele>
        <time>2021-11-07T12:56:32.434Z</time>
      </trkpt>
      <trkpt lat="47.555472" lon="7.949652">
        <ele>290.798634</ele>
        <time>2021-11-07T12:56:33.349Z</time>
      </trkpt>
      <trkpt lat="47.555594" lon="7.949924">
        <ele>290.683581</ele>
        <time>2021-11-07T12:56:36.069Z</time>
      </trkpt>
      <trkpt lat="47.555651" lon="7.950049">
        <ele>290.621605</ele>
        <time>2021-11-07T12:56:37.317Z</time>
      </trkpt>
      <trkpt lat="47.555760" lon="7.950281">
        <ele>290.488549</ele>
        <time>2021-11-07T12:56:39.666Z</time>
      </trkpt>
      <trkpt lat="47.555919" lon="7.950621">
        <ele>290.293849</ele>
        <time>2021-11-07T12:56:43.076Z</time>
      </trkpt>
      <trkpt lat="47.556066" lon="7.950941">
        <ele>290.111647</ele>
        <time>2021-11-07T12:56:46.276Z</time>
      </trkpt>
      <trkpt lat="47.556242" lon="7.951253">
        <ele>289.920248</ele>
        <time>2021-11-07T12:56:49.739Z</time>
      </trkpt>
      <trkpt lat="47.556537" lon="7.951618">
        <ele>289.652206</ele>
        <time>2021-11-07T12:56:54.585Z</time>
      </trkpt>
      <trkpt lat="47.556779" lon="7.951918">
        <ele>289.432148</ele>
        <time>2021-11-07T12:56:58.830Z</time>
      </trkpt>
      <trkpt lat="47.556818" lon="7.951969">
        <ele>289.403676</ele>
        <time>2021-11-07T12:56:59.567Z</time>
      </trkpt>
      <trkpt lat="47.556921" lon="7.952131">
        <ele>289.427059</ele>
        <time>2021-11-07T12:57:01.695Z</time>
      </trkpt>
      <trkpt lat="47.557113" lon="7.952476">
        <ele>289.474037</ele>
        <time>2021-11-07T12:57:06.278Z</time>
      </trkpt>
      <trkpt lat="47.557371" lon="7.952961">
        <ele>289.538915</ele>
        <time>2021-11-07T12:57:13.199Z</time>
      </trkpt>
      <trkpt lat="47.557829" lon="7.953829">
        <ele>289.654666</ele>
        <time>2021-11-07T12:57:25.280Z</time>
      </trkpt>
      <trkpt lat="47.558045" lon="7.954108">
        <ele>289.666764</ele>
        <time>2021-11-07T12:57:29.516Z</time>
      </trkpt>
      <trkpt lat="47.558149" lon="7.954179">
        <ele>289.650552</ele>
        <time>2021-11-07T12:57:31.616Z</time>
      </trkpt>
      <trkpt lat="47.558138" lon="7.954249">
        <ele>289.643685</ele>
        <time>2021-11-07T12:57:32.296Z</time>
      </trkpt>
      <trkpt lat="47.558124" lon="7.954331">
        <ele>289.635604</ele>
        <time>2021-11-07T12:57:33.171Z</time>
      </trkpt>
      <trkpt lat="47.558107" lon="7.954410">
        <ele>289.627682</ele>
        <time>2021-11-07T12:57:33.968Z</time>
      </trkpt>
      <trkpt lat="47.558161" lon="7.954466">
        <ele>289.618350</ele>
        <time>2021-11-07T12:57:34.967Z</time>
      </trkpt>
      <trkpt lat="47.558201" lon="7.954539">
        <ele>289.609366</ele>
        <time>2021-11-07T12:57:36.034Z</time>
      </trkpt>
      <trkpt lat="47.558360" lon="7.955074">
        <ele>289.553513</ele>
        <time>2021-11-07T12:57:41.940Z</time>
      </trkpt>
      <trkpt lat="47.558659" lon="7.956055">
        <ele>289.450669</ele>
        <time>2021-11-07T12:57:52.034Z</time>
      </trkpt>
      <trkpt lat="47.558756" lon="7.956469">
        <ele>289.352847</ele>
        <time>2021-11-07T12:57:55.831Z</time>
      </trkpt>
      <trkpt lat="47.559224" lon="7.958738">
        <ele>288.451492</ele>
        <time>2021-11-07T12:58:16.274Z</time>
      </trkpt>
      <trkpt lat="47.559324" lon="7.959601">
        <ele>288.588197</ele>
        <time>2021-11-07T12:58:24.632Z</time>
      </trkpt>
      <trkpt lat="47.559346" lon="7.959868">
        <ele>288.647934</ele>
        <time>2021-11-07T12:58:27.726Z</time>
      </trkpt>
      <trkpt lat="47.559406" lon="7.960730">
        <ele>288.840384</ele>
        <time>2021-11-07T12:58:37.210Z</time>
      </trkpt>
      <trkpt lat="47.559408" lon="7.961845">
        <ele>289.164923</ele>
        <time>2021-11-07T12:58:50.974Z</time>
      </trkpt>
      <trkpt lat="47.559368" lon="7.962709">
        <ele>289.539800</ele>
        <time>2021-11-07T12:59:02.216Z</time>
      </trkpt>
      <trkpt lat="47.559232" lon="7.963800">
        <ele>290.020050</ele>
        <time>2021-11-07T12:59:14.809Z</time>
      </trkpt>
      <trkpt lat="47.559029" lon="7.964894">
        <ele>290.080354</ele>
        <time>2021-11-07T12:59:26.511Z</time>
      </trkpt>
      <trkpt lat="47.558949" lon="7.965326">
        <ele>290.035892</ele>
        <time>2021-11-07T12:59:30.747Z</time>
      </trkpt>
      <trkpt lat="47.558732" lon="7.966356">
        <ele>289.928798</ele>
        <time>2021-11-07T12:59:40.630Z</time>
      </trkpt>
      <trkpt lat="47.558606" lon="7.966985">
        <ele>289.903525</ele>
        <time>2021-11-07T12:59:46.886Z</time>
      </trkpt>
      <trkpt lat="47.558448" lon="7.967701">
        <ele>289.920430</ele>
        <time>2021-11-07T12:59:54.141Z</time>
      </trkpt>
      <trkpt lat="47.558430" lon="7.967788">
        <ele>289.922472</ele>
        <time>2021-11-07T12:59:55.024Z</time>
      </trkpt>
      <trkpt lat="47.558327" lon="7.968108">
        <ele>289.930428</ele>
        <time>2021-11-07T12:59:58.978Z</time>
      </trkpt>
      <trkpt lat="47.558313" lon="7.968259">
        <ele>289.933849</ele>
        <time>2021-11-07T13:00:00.437Z</time>
      </trkpt>
      <trkpt lat="47.558296" lon="7.968403">
        <ele>289.937129</ele>
        <time>2021-11-07T13:00:02.239Z</time>
      </trkpt>
      <trkpt lat="47.558225" lon="7.968807">
        <ele>289.946498</ele>
        <time>2021-11-07T13:00:06.693Z</time>
      </trkpt>
      <trkpt lat="47.558045" lon="7.969704">
        <ele>289.903355</ele>
        <time>2021-11-07T13:00:16.264Z</time>
      </trkpt>
      <trkpt lat="47.557756" lon="7.971140">
        <ele>289.749581</ele>
        <time>2021-11-07T13:00:30.955Z</time>
      </trkpt>
      <trkpt lat="47.557538" lon="7.972196">
        <ele>289.642494</ele>
        <time>2021-11-07T13:00:40.638Z</time>
      </trkpt>
      <trkpt lat="47.557419" lon="7.972636">
        <ele>289.600412</ele>
        <time>2021-11-07T13:00:44.894Z</time>
      </trkpt>
      <trkpt lat="47.557323" lon="7.972992">
        <ele>289.566378</ele>
        <time>2021-11-07T13:00:48.510Z</time>
      </trkpt>
      <trkpt lat="47.557235" lon="7.973507">
        <ele>289.519215</ele>
        <time>2021-11-07T13:00:53.588Z</time>
      </trkpt>
      <trkpt lat="47.557108" lon="7.974186">
        <ele>289.456663</ele>
        <time>2021-11-07T13:01:00.741Z</time>
      </trkpt>
      <trkpt lat="47.557045" lon="7.974526">
        <ele>289.573072</ele>
        <time>2021-11-07T13:01:04.775Z</time>
      </trkpt>
      <trkpt lat="47.556769" lon="7.976421">
        <ele>290.640545</ele>
        <time>2021-11-07T13:01:28.935Z</time>
      </trkpt>
      <trkpt lat="47.556668" lon="7.978159">
        <ele>291.224187</ele>
        <time>2021-11-07T13:01:50.850Z</time>
      </trkpt>
      <trkpt lat="47.557185" lon="7.988787">
        <ele>293.688241</ele>
        <time>2021-11-07T13:03:45.184Z</time>
      </trkpt>
      <trkpt lat="47.557298" lon="7.990679">
        <ele>294.127640</ele>
        <time>2021-11-07T13:04:06.408Z</time>
      </trkpt>
      <trkpt lat="47.557377" lon="7.991413">
        <ele>294.260289</ele>
        <time>2021-11-07T13:04:14.695Z</time>
      </trkpt>
      <trkpt lat="47.557666" lon="7.996934">
        <ele>295.448601</ele>
        <time>2021-11-07T13:05:13.552Z</time>
      </trkpt>
      <trkpt lat="47.557611" lon="7.998828">
        <ele>296.069862</ele>
        <time>2021-11-07T13:05:36.180Z</time>
      </trkpt>
      <trkpt lat="47.557595" lon="7.999065">
        <ele>296.152018</ele>
        <time>2021-11-07T13:05:39.204Z</time>
      </trkpt>
      <trkpt lat="47.557590" lon="7.999121">
        <ele>296.171503</ele>
        <time>2021-11-07T13:05:39.863Z</time>
      </trkpt>
      <trkpt lat="47.557569" lon="7.999330">
        <ele>296.244388</ele>
        <time>2021-11-07T13:05:45.452Z</time>
      </trkpt>
      <trkpt lat="47.557552" lon="7.999488">
        <ele>296.299575</ele>
        <time>2021-11-07T13:05:47.469Z</time>
      </trkpt>
      <trkpt lat="47.557421" lon="8.000151">
        <ele>296.537865</ele>
        <time>2021-11-07T13:05:55.668Z</time>
      </trkpt>
      <trkpt lat="47.556859" lon="8.003033">
        <ele>296.585073</ele>
        <time>2021-11-07T13:06:25.381Z</time>
      </trkpt>
      <trkpt lat="47.556414" lon="8.004608">
        <ele>295.974986</ele>
        <time>2021-11-07T13:06:40.150Z</time>
      </trkpt>
      <trkpt lat="47.555689" lon="8.008075">
        <ele>294.297600</ele>
        <time>2021-11-07T13:07:11.817Z</time>
      </trkpt>
      <trkpt lat="47.555492" lon="8.008854">
        <ele>293.841308</ele>
        <time>2021-11-07T13:07:18.771Z</time>
      </trkpt>
      <trkpt lat="47.555373" lon="8.009365">
        <ele>293.524352</ele>
        <time>2021-11-07T13:07:23.092Z</time>
      </trkpt>
      <trkpt lat="47.555124" lon="8.010557">
        <ele>292.792717</ele>
        <time>2021-11-07T13:07:33.565Z</time>
      </trkpt>
      <trkpt lat="47.555069" lon="8.010772">
        <ele>292.657900</ele>
        <time>2021-11-07T13:07:35.531Z</time>
      </trkpt>
      <trkpt lat="47.555159" lon="8.010812">
        <ele>292.586154</ele>
        <time>2021-11-07T13:07:36.744Z</time>
      </trkpt>
      <trkpt lat="47.555290" lon="8.010881">
        <ele>292.594159</ele>
        <time>2021-11-07T13:07:38.537Z</time>
      </trkpt>
      <trkpt lat="47.555339" lon="8.010917">
        <ele>292.597309</ele>
        <time>2021-11-07T13:07:39.228Z</time>
      </trkpt>
      <trkpt lat="47.555372" lon="8.010968">
        <ele>292.600054</ele>
        <time>2021-11-07T13:07:39.830Z</time>
      </trkpt>
      <trkpt lat="47.555387" lon="8.010980">
        <ele>292.601036</ele>
        <time>2021-11-07T13:07:40.055Z</time>
      </trkpt>
      <trkpt lat="47.555405" lon="8.010993">
        <ele>292.602189</ele>
        <time>2021-11-07T13:07:40.312Z</time>
      </trkpt>
      <trkpt lat="47.555438" lon="8.011004">
        <ele>292.604137</ele>
        <time>2021-11-07T13:07:40.745Z</time>
      </trkpt>
      <trkpt lat="47.555418" lon="8.011120">
        <ele>292.608789</ele>
        <time>2021-11-07T13:07:41.832Z</time>
      </trkpt>
      <trkpt lat="47.555367" lon="8.011430">
        <ele>292.621189</ele>
        <time>2021-11-07T13:07:44.802Z</time>
      </trkpt>
      <trkpt lat="47.555341" lon="8.011585">
        <ele>292.627395</ele>
        <time>2021-11-07T13:07:46.312Z</time>
      </trkpt>
      <trkpt lat="47.555333" lon="8.011686">
        <ele>292.631347</ele>
        <time>2021-11-07T13:07:47.368Z</time>
      </trkpt>
      <trkpt lat="47.555323" lon="8.011802">
        <ele>292.635892</ele>
        <time>2021-11-07T13:07:48.468Z</time>
      </trkpt>
      <trkpt lat="47.555269" lon="8.012084">
        <ele>292.647283</ele>
        <time>2021-11-07T13:07:51.406Z</time>
      </trkpt>
      <trkpt lat="47.555212" lon="8.012332">
        <ele>292.657464</ele>
        <time>2021-11-07T13:07:54.150Z</time>
      </trkpt>
      <trkpt lat="47.555138" lon="8.012646">
        <ele>292.670389</ele>
        <time>2021-11-07T13:07:57.757Z</time>
      </trkpt>
      <trkpt lat="47.555084" lon="8.012876">
        <ele>292.679852</ele>
        <time>2021-11-07T13:08:00.604Z</time>
      </trkpt>
      <trkpt lat="47.554948" lon="8.013450">
        <ele>292.963122</ele>
        <time>2021-11-07T13:08:08.562Z</time>
      </trkpt>
      <trkpt lat="47.554871" lon="8.013777">
        <ele>293.219493</ele>
        <time>2021-11-07T13:08:13.216Z</time>
      </trkpt>
      <trkpt lat="47.554843" lon="8.013902">
        <ele>293.316987</ele>
        <time>2021-11-07T13:08:14.985Z</time>
      </trkpt>
      <trkpt lat="47.554807" lon="8.014038">
        <ele>293.425127</ele>
        <time>2021-11-07T13:08:16.943Z</time>
      </trkpt>
      <trkpt lat="47.554594" lon="8.014946">
        <ele>294.136716</ele>
        <time>2021-11-07T13:08:29.469Z</time>
      </trkpt>
      <trkpt lat="47.554389" lon="8.015820">
        <ele>294.801885</ele>
        <time>2021-11-07T13:08:41.492Z</time>
      </trkpt>
      <trkpt lat="47.554188" lon="8.016568">
        <ele>295.324101</ele>
        <time>2021-11-07T13:08:52.176Z</time>
      </trkpt>
      <trkpt lat="47.554072" lon="8.017124">
        <ele>295.701577</ele>
        <time>2021-11-07T13:08:59.774Z</time>
      </trkpt>
      <trkpt lat="47.553834" lon="8.018363">
        <ele>296.445624</ele>
        <time>2021-11-07T13:09:15.512Z</time>
      </trkpt>
      <trkpt lat="47.553821" lon="8.018432">
        <ele>296.463073</ele>
        <time>2021-11-07T13:09:16.500Z</time>
      </trkpt>
      <trkpt lat="47.553780" lon="8.018576">
        <ele>296.501141</ele>
        <time>2021-11-07T13:09:18.078Z</time>
      </trkpt>
      <trkpt lat="47.553753" lon="8.018684">
        <ele>296.529194</ele>
        <time>2021-11-07T13:09:19.251Z</time>
      </trkpt>
      <trkpt lat="47.553744" lon="8.018750">
        <ele>296.545595</ele>
        <time>2021-11-07T13:09:20.027Z</time>
      </trkpt>
      <trkpt lat="47.553738" lon="8.018867">
        <ele>296.574175</ele>
        <time>2021-11-07T13:09:21.322Z</time>
      </trkpt>
      <trkpt lat="47.553693" lon="8.019156">
        <ele>296.646417</ele>
        <time>2021-11-07T13:09:24.228Z</time>
      </trkpt>
      <trkpt lat="47.553654" lon="8.019401">
        <ele>296.707730</ele>
        <time>2021-11-07T13:09:26.771Z</time>
      </trkpt>
      <trkpt lat="47.553605" lon="8.019679">
        <ele>296.777715</ele>
        <time>2021-11-07T13:09:29.452Z</time>
      </trkpt>
      <trkpt lat="47.553542" lon="8.020040">
        <ele>296.868538</ele>
        <time>2021-11-07T13:09:33.427Z</time>
      </trkpt>
      <trkpt lat="47.553523" lon="8.020179">
        <ele>296.903082</ele>
        <time>2021-11-07T13:09:34.681Z</time>
      </trkpt>
      <trkpt lat="47.553554" lon="8.020916">
        <ele>297.222006</ele>
        <time>2021-11-07T13:09:43.505Z</time>
      </trkpt>
      <trkpt lat="47.553598" lon="8.021379">
        <ele>297.702337</ele>
        <time>2021-11-07T13:09:49.311Z</time>
      </trkpt>
      <trkpt lat="47.553607" lon="8.021497">
        <ele>297.824329</ele>
        <time>2021-11-07T13:09:50.886Z</time>
      </trkpt>
      <trkpt lat="47.553614" lon="8.021587">
        <ele>297.917398</ele>
        <time>2021-11-07T13:09:52.065Z</time>
      </trkpt>
      <trkpt lat="47.553615" lon="8.021606">
        <ele>297.936976</ele>
        <time>2021-11-07T13:09:52.324Z</time>
      </trkpt>
      <trkpt lat="47.553619" lon="8.021667">
        <ele>297.999936</ele>
        <time>2021-11-07T13:09:52.974Z</time>
      </trkpt>
      <trkpt lat="47.553685" lon="8.022501">
        <ele>298.862570</ele>
        <time>2021-11-07T13:10:03.737Z</time>
      </trkpt>
      <trkpt lat="47.553695" lon="8.022619">
        <ele>298.984743</ele>
        <time>2021-11-07T13:10:05.571Z</time>
      </trkpt>
      <trkpt lat="47.553699" lon="8.022667">
        <ele>299.034427</ele>
        <time>2021-11-07T13:10:06.323Z</time>
      </trkpt>
      <trkpt lat="47.553719" lon="8.022919">
        <ele>299.295089</ele>
        <time>2021-11-07T13:10:10.107Z</time>
      </trkpt>
      <trkpt lat="47.553732" lon="8.023128">
        <ele>299.510703</ele>
        <time>2021-11-07T13:10:13.692Z</time>
      </trkpt>
      <trkpt lat="47.553811" lon="8.023113">
        <ele>299.631936</ele>
        <time>2021-11-07T13:10:15.611Z</time>
      </trkpt>
      <trkpt lat="47.554021" lon="8.023095">
        <ele>300.232598</ele>
        <time>2021-11-07T13:10:20.944Z</time>
      </trkpt>
      <trkpt lat="47.554299" lon="8.023080">
        <ele>301.336250</ele>
        <time>2021-11-07T13:10:29.212Z</time>
      </trkpt>
      <trkpt lat="47.554701" lon="8.023055">
        <ele>302.932524</ele>
        <time>2021-11-07T13:10:41.885Z</time>
      </trkpt>
      <trkpt lat="47.554717" lon="8.023117">
        <ele>303.110252</ele>
        <time>2021-11-07T13:10:43.491Z</time>
      </trkpt>
      <trkpt lat="47.554744" lon="8.023183">
        <ele>303.316897</ele>
        <time>2021-11-07T13:10:45.563Z</time>
      </trkpt>
      <trkpt lat="47.554815" lon="8.023260">
        <ele>303.665966</ele>
        <time>2021-11-07T13:10:49.001Z</time>
      </trkpt>
      <trkpt lat="47.555014" lon="8.023500">
        <ele>304.683927</ele>
        <time>2021-11-07T13:10:58.899Z</time>
      </trkpt>
      <trkpt lat="47.555120" lon="8.023629">
        <ele>305.228123</ele>
        <time>2021-11-07T13:11:03.806Z</time>
      </trkpt>
      <trkpt lat="47.555288" lon="8.023837">
        <ele>306.096682</ele>
        <time>2021-11-07T13:11:11.877Z</time>
      </trkpt>
      <trkpt lat="47.555464" lon="8.023921">
        <ele>306.830261</ele>
        <time>2021-11-07T13:11:18.796Z</time>
      </trkpt>
      <trkpt lat="47.555771" lon="8.023937">
        <ele>308.325421</ele>
        <time>2021-11-07T13:11:30.455Z</time>
      </trkpt>
      <trkpt lat="47.555905" lon="8.023936">
        <ele>308.986458</ele>
        <time>2021-11-07T13:11:36.069Z</time>
      </trkpt>
      <trkpt lat="47.556090" lon="8.023781">
        <ele>310.034859</ele>
        <time>2021-11-07T13:11:44.273Z</time>
      </trkpt>
      <trkpt lat="47.556286" lon="8.023733">
        <ele>311.014855</ele>
        <time>2021-11-07T13:11:52.571Z</time>
      </trkpt>
      <trkpt lat="47.556504" lon="8.023642">
        <ele>312.132118</ele>
        <time>2021-11-07T13:12:01.509Z</time>
      </trkpt>
      <trkpt lat="47.556691" lon="8.023589">
        <ele>313.071322</ele>
        <time>2021-11-07T13:12:09.162Z</time>
      </trkpt>
      <trkpt lat="47.556774" lon="8.023573">
        <ele>313.484216</ele>
        <time>2021-11-07T13:12:12.828Z</time>
      </trkpt>
      <trkpt lat="47.556882" lon="8.023535">
        <ele>314.031800</ele>
        <time>2021-11-07T13:12:17.882Z</time>
      </trkpt>
      <trkpt lat="47.556913" lon="8.023525">
        <ele>314.188306</ele>
        <time>2021-11-07T13:12:19.296Z</time>
      </trkpt>
      <trkpt lat="47.557050" lon="8.023513">
        <ele>314.865315</ele>
        <time>2021-11-07T13:12:24.439Z</time>
      </trkpt>
      <trkpt lat="47.557190" lon="8.023515">
        <ele>315.555975</ele>
        <time>2021-11-07T13:12:30.404Z</time>
      </trkpt>
      <trkpt lat="47.557314" lon="8.023539">
        <ele>316.212739</ele>
        <time>2021-11-07T13:12:35.568Z</time>
      </trkpt>
      <trkpt lat="47.557730" lon="8.023786">
        <ele>318.651429</ele>
        <time>2021-11-07T13:12:52.628Z</time>
      </trkpt>
      <trkpt lat="47.557897" lon="8.023902">
        <ele>319.655072</ele>
        <time>2021-11-07T13:13:01.086Z</time>
      </trkpt>
      <trkpt lat="47.558094" lon="8.024012">
        <ele>320.800658</ele>
        <time>2021-11-07T13:13:09.565Z</time>
      </trkpt>
      <trkpt lat="47.558184" lon="8.024093">
        <ele>321.373660</ele>
        <time>2021-11-07T13:13:15.243Z</time>
      </trkpt>
      <trkpt lat="47.558867" lon="8.025170">
        <ele>326.838828</ele>
        <time>2021-11-07T13:13:56.764Z</time>
      </trkpt>
      <trkpt lat="47.558912" lon="8.025234">
        <ele>327.188715</ele>
        <time>2021-11-07T13:14:00.405Z</time>
      </trkpt>
      <trkpt lat="47.559129" lon="8.025458">
        <ele>328.672242</ele>
        <time>2021-11-07T13:14:10.212Z</time>
      </trkpt>
      <trkpt lat="47.559351" lon="8.025813">
        <ele>330.504415</ele>
        <time>2021-11-07T13:14:23.963Z</time>
      </trkpt>
      <trkpt lat="47.559413" lon="8.025913">
        <ele>331.018484</ele>
        <time>2021-11-07T13:14:27.667Z</time>
      </trkpt>
      <trkpt lat="47.559833" lon="8.027284">
        <ele>336.610429</ele>
        <time>2021-11-07T13:15:13.340Z</time>
      </trkpt>
      <trkpt lat="47.559956" lon="8.027552">
        <ele>337.712000</ele>
        <time>2021-11-07T13:15:21.781Z</time>
      </trkpt>
      <trkpt lat="47.560018" lon="8.027691">
        <ele>338.278301</ele>
        <time>2021-11-07T13:15:26.752Z</time>
      </trkpt>
      <trkpt lat="47.560181" lon="8.027943">
        <ele>339.464699</ele>
        <time>2021-11-07T13:15:36.029Z</time>
      </trkpt>
      <trkpt lat="47.560294" lon="8.028059">
        <ele>340.157047</ele>
        <time>2021-11-07T13:15:42.102Z</time>
      </trkpt>
      <trkpt lat="47.560542" lon="8.028303">
        <ele>341.656342</ele>
        <time>2021-11-07T13:15:53.452Z</time>
      </trkpt>
      <trkpt lat="47.560627" lon="8.028359">
        <ele>342.124851</ele>
        <time>2021-11-07T13:15:57.701Z</time>
      </trkpt>
      <trkpt lat="47.560664" lon="8.028383">
        <ele>342.328274</ele>
        <time>2021-11-07T13:15:59.970Z</time>
      </trkpt>
      <trkpt lat="47.561248" lon="8.028606">
        <ele>345.015376</ele>
        <time>2021-11-07T13:16:22.400Z</time>
      </trkpt>
      <trkpt lat="47.561630" lon="8.028850">
        <ele>345.969416</ele>
        <time>2021-11-07T13:16:37.484Z</time>
      </trkpt>
      <trkpt lat="47.561870" lon="8.029058">
        <ele>346.607079</ele>
        <time>2021-11-07T13:16:45.446Z</time>
      </trkpt>
      <trkpt lat="47.562490" lon="8.029832">
        <ele>348.466358</ele>
        <time>2021-11-07T13:17:06.228Z</time>
      </trkpt>
      <trkpt lat="47.562698" lon="8.029971">
        <ele>348.926615</ele>
        <time>2021-11-07T13:17:11.601Z</time>
      </trkpt>
      <trkpt lat="47.562995" lon="8.029987">
        <ele>349.305561</ele>
        <time>2021-11-07T13:17:18.380Z</time>
      </trkpt>
      <trkpt lat="47.563183" lon="8.030459">
        <ele>349.777135</ele>
        <time>2021-11-07T13:17:25.013Z</time>
      </trkpt>
      <trkpt lat="47.563345" lon="8.030793">
        <ele>350.131039</ele>
        <time>2021-11-07T13:17:30.290Z</time>
      </trkpt>
      <trkpt lat="47.563394" lon="8.030849">
        <ele>350.209938</ele>
        <time>2021-11-07T13:17:31.520Z</time>
      </trkpt>
      <trkpt lat="47.563725" lon="8.031208">
        <ele>350.732938</ele>
        <time>2021-11-07T13:17:39.541Z</time>
      </trkpt>
      <trkpt lat="47.564393" lon="8.032053">
        <ele>352.970890</ele>
        <time>2021-11-07T13:18:00.363Z</time>
      </trkpt>
      <trkpt lat="47.564511" lon="8.032311">
        <ele>353.660346</ele>
        <time>2021-11-07T13:18:05.689Z</time>
      </trkpt>
      <trkpt lat="47.564569" lon="8.032525">
        <ele>354.170482</ele>
        <time>2021-11-07T13:18:10.026Z</time>
      </trkpt>
      <trkpt lat="47.564678" lon="8.032921">
        <ele>355.116529</ele>
        <time>2021-11-07T13:18:17.374Z</time>
      </trkpt>
      <trkpt lat="47.564702" lon="8.033000">
        <ele>355.308175</ele>
        <time>2021-11-07T13:18:20.175Z</time>
      </trkpt>
      <trkpt lat="47.564933" lon="8.033469">
        <ele>356.592605</ele>
        <time>2021-11-07T13:18:33.127Z</time>
      </trkpt>
      <trkpt lat="47.565189" lon="8.033686">
        <ele>357.873008</ele>
        <time>2021-11-07T13:18:42.543Z</time>
      </trkpt>
      <trkpt lat="47.565871" lon="8.033704">
        <ele>361.452721</ele>
        <time>2021-11-07T13:19:06.658Z</time>
      </trkpt>
      <trkpt lat="47.566001" lon="8.033711">
        <ele>362.135413</ele>
        <time>2021-11-07T13:19:12.887Z</time>
      </trkpt>
      <trkpt lat="47.566321" lon="8.033776">
        <ele>363.830477</ele>
        <time>2021-11-07T13:19:24.170Z</time>
      </trkpt>
      <trkpt lat="47.566670" lon="8.033967">
        <ele>365.782919</ele>
        <time>2021-11-07T13:19:37.553Z</time>
      </trkpt>
      <trkpt lat="47.566763" lon="8.034017">
        <ele>366.302105</ele>
        <time>2021-11-07T13:19:41.287Z</time>
      </trkpt>
      <trkpt lat="47.567079" lon="8.034308">
        <ele>367.985869</ele>
        <time>2021-11-07T13:19:54.331Z</time>
      </trkpt>
      <trkpt lat="47.567313" lon="8.034591">
        <ele>369.331340</ele>
        <time>2021-11-07T13:20:05.403Z</time>
      </trkpt>
      <trkpt lat="47.567673" lon="8.035162">
        <ele>371.680337</ele>
        <time>2021-11-07T13:20:22.485Z</time>
      </trkpt>
      <trkpt lat="47.568018" lon="8.035824">
        <ele>374.194617</ele>
        <time>2021-11-07T13:20:39.144Z</time>
      </trkpt>
      <trkpt lat="47.568240" lon="8.036333">
        <ele>375.715578</ele>
        <time>2021-11-07T13:20:51.394Z</time>
      </trkpt>
      <trkpt lat="47.568395" lon="8.036764">
        <ele>376.894382</ele>
        <time>2021-11-07T13:21:00.708Z</time>
      </trkpt>
      <trkpt lat="47.568512" lon="8.037290">
        <ele>378.231141</ele>
        <time>2021-11-07T13:21:10.875Z</time>
      </trkpt>
      <trkpt lat="47.568537" lon="8.037570">
        <ele>378.912837</ele>
        <time>2021-11-07T13:21:16.693Z</time>
      </trkpt>
      <trkpt lat="47.568540" lon="8.037665">
        <ele>379.142378</ele>
        <time>2021-11-07T13:21:18.553Z</time>
      </trkpt>
      <trkpt lat="47.568562" lon="8.038275">
        <ele>380.616767</ele>
        <time>2021-11-07T13:21:30.779Z</time>
      </trkpt>
      <trkpt lat="47.568633" lon="8.038920">
        <ele>382.286124</ele>
        <time>2021-11-07T13:21:43.828Z</time>
      </trkpt>
      <trkpt lat="47.568715" lon="8.039132">
        <ele>382.918639</ele>
        <time>2021-11-07T13:21:49.153Z</time>
      </trkpt>
      <trkpt lat="47.568916" lon="8.039421">
        <ele>383.992961</ele>
        <time>2021-11-07T13:21:57.106Z</time>
      </trkpt>
      <trkpt lat="47.568992" lon="8.039490">
        <ele>384.334874</ele>
        <time>2021-11-07T13:22:00.128Z</time>
      </trkpt>
      <trkpt lat="47.569043" lon="8.039527">
        <ele>384.552709</ele>
        <time>2021-11-07T13:22:01.678Z</time>
      </trkpt>
      <trkpt lat="47.569103" lon="8.039554">
        <ele>384.793264</ele>
        <time>2021-11-07T13:22:03.204Z</time>
      </trkpt>
      <trkpt lat="47.569159" lon="8.039571">
        <ele>385.012558</ele>
        <time>2021-11-07T13:22:04.898Z</time>
      </trkpt>
      <trkpt lat="47.569259" lon="8.039574">
        <ele>385.396270</ele>
        <time>2021-11-07T13:22:07.948Z</time>
      </trkpt>
      <trkpt lat="47.569469" lon="8.039531">
        <ele>386.209550</ele>
        <time>2021-11-07T13:22:13.806Z</time>
      </trkpt>
      <trkpt lat="47.569586" lon="8.039479">
        <ele>386.678146</ele>
        <time>2021-11-07T13:22:17.332Z</time>
      </trkpt>
      <trkpt lat="47.569647" lon="8.039770">
        <ele>387.466871</ele>
        <time>2021-11-07T13:22:23.968Z</time>
      </trkpt>
      <trkpt lat="47.569695" lon="8.040052">
        <ele>388.337980</ele>
        <time>2021-11-07T13:22:30.316Z</time>
      </trkpt>
      <trkpt lat="47.569707" lon="8.040137">
        <ele>388.629960</ele>
        <time>2021-11-07T13:22:32.545Z</time>
      </trkpt>
      <trkpt lat="47.569814" lon="8.040942">
        <ele>391.388592</ele>
        <time>2021-11-07T13:22:51.476Z</time>
      </trkpt>
      <trkpt lat="47.569913" lon="8.041464">
        <ele>393.211703</ele>
        <time>2021-11-07T13:23:03.741Z</time>
      </trkpt>
      <trkpt lat="47.569947" lon="8.041607">
        <ele>393.721483</ele>
        <time>2021-11-07T13:23:07.131Z</time>
      </trkpt>
      <trkpt lat="47.570037" lon="8.042001">
        <ele>395.120067</ele>
        <time>2021-11-07T13:23:18.636Z</time>
      </trkpt>
      <trkpt lat="47.570472" lon="8.043006">
        <ele>398.614255</ele>
        <time>2021-11-07T13:23:47.553Z</time>
      </trkpt>
      <trkpt lat="47.570550" lon="8.043505">
        <ele>399.954634</ele>
        <time>2021-11-07T13:23:58.804Z</time>
      </trkpt>
      <trkpt lat="47.570553" lon="8.043603">
        <ele>400.211346</ele>
        <time>2021-11-07T13:24:02.658Z</time>
      </trkpt>
      <trkpt lat="47.570556" lon="8.043717">
        <ele>400.509889</ele>
        <time>2021-11-07T13:24:04.923Z</time>
      </trkpt>
      <trkpt lat="47.570458" lon="8.044327">
        <ele>402.150779</ele>
        <time>2021-11-07T13:24:16.464Z</time>
      </trkpt>
      <trkpt lat="47.570449" lon="8.044391">
        <ele>402.321855</ele>
        <time>2021-11-07T13:24:17.519Z</time>
      </trkpt>
      <trkpt lat="47.570407" lon="8.044709">
        <ele>403.169798</ele>
        <time>2021-11-07T13:24:23.460Z</time>
      </trkpt>
      <trkpt lat="47.570401" lon="8.044853">
        <ele>403.547339</ele>
        <time>2021-11-07T13:24:25.074Z</time>
      </trkpt>
      <trkpt lat="47.570393" lon="8.045065">
        <ele>403.810040</ele>
        <time>2021-11-07T13:24:27.338Z</time>
      </trkpt>
      <trkpt lat="47.570405" lon="8.045482">
        <ele>403.959968</ele>
        <time>2021-11-07T13:24:33.569Z</time>
      </trkpt>
      <trkpt lat="47.570410" lon="8.045595">
        <ele>404.000647</ele>
        <time>2021-11-07T13:24:34.456Z</time>
      </trkpt>
      <trkpt lat="47.570454" lon="8.045878">
        <ele>404.104969</ele>
        <time>2021-11-07T13:24:38.746Z</time>
      </trkpt>
      <trkpt lat="47.570703" lon="8.046690">
        <ele>404.425364</ele>
        <time>2021-11-07T13:24:45.694Z</time>
      </trkpt>
      <trkpt lat="47.570990" lon="8.047289">
        <ele>404.689270</ele>
        <time>2021-11-07T13:24:53.732Z</time>
      </trkpt>
      <trkpt lat="47.571053" lon="8.047570">
        <ele>405.331223</ele>
        <time>2021-11-07T13:24:57.821Z</time>
      </trkpt>
      <trkpt lat="47.571035" lon="8.047613">
        <ele>405.479953</ele>
        <time>2021-11-07T13:24:58.659Z</time>
      </trkpt>
      <trkpt lat="47.571041" lon="8.047802">
        <ele>406.036053</ele>
        <time>2021-11-07T13:25:02.175Z</time>
      </trkpt>
      <trkpt lat="47.571051" lon="8.047825">
        <ele>406.116473</ele>
        <time>2021-11-07T13:25:02.523Z</time>
      </trkpt>
      <trkpt lat="47.571060" lon="8.047840">
        <ele>406.175470</ele>
        <time>2021-11-07T13:25:02.687Z</time>
      </trkpt>
      <trkpt lat="47.571146" lon="8.047904">
        <ele>406.594680</ele>
        <time>2021-11-07T13:25:05.409Z</time>
      </trkpt>
      <trkpt lat="47.571173" lon="8.047904">
        <ele>406.712300</ele>
        <time>2021-11-07T13:25:05.996Z</time>
      </trkpt>
      <trkpt lat="47.571192" lon="8.047900">
        <ele>406.795900</ele>
        <time>2021-11-07T13:25:06.511Z</time>
      </trkpt>
      <trkpt lat="47.571216" lon="8.047888">
        <ele>406.906239</ele>
        <time>2021-11-07T13:25:07.247Z</time>
      </trkpt>
      <trkpt lat="47.571230" lon="8.047878">
        <ele>406.973940</ele>
        <time>2021-11-07T13:25:07.618Z</time>
      </trkpt>
      <trkpt lat="47.571240" lon="8.047868">
        <ele>407.026490</ele>
        <time>2021-11-07T13:25:08.113Z</time>
      </trkpt>
      <trkpt lat="47.571296" lon="8.047749">
        <ele>407.452913</ele>
        <time>2021-11-07T13:25:11.120Z</time>
      </trkpt>
      <trkpt lat="47.571300" lon="8.047715">
        <ele>407.554349</ele>
        <time>2021-11-07T13:25:11.991Z</time>
      </trkpt>
      <trkpt lat="47.571299" lon="8.047673">
        <ele>407.677866</ele>
        <time>2021-11-07T13:25:12.749Z</time>
      </trkpt>
      <trkpt lat="47.571296" lon="8.047649">
        <ele>407.749604</ele>
        <time>2021-11-07T13:25:13.002Z</time>
      </trkpt>
      <trkpt lat="47.571290" lon="8.047622">
        <ele>407.833152</ele>
        <time>2021-11-07T13:25:13.599Z</time>
      </trkpt>
      <trkpt lat="47.571491" lon="8.047139">
        <ele>409.501043</ele>
        <time>2021-11-07T13:25:25.947Z</time>
      </trkpt>
      <trkpt lat="47.571945" lon="8.046452">
        <ele>412.327408</ele>
        <time>2021-11-07T13:25:50.605Z</time>
      </trkpt>
      <trkpt lat="47.572510" lon="8.045794">
        <ele>417.031143</ele>
        <time>2021-11-07T13:26:25.213Z</time>
      </trkpt>
      <trkpt lat="47.573295" lon="8.045051">
        <ele>423.289329</ele>
        <time>2021-11-07T13:27:04.244Z</time>
      </trkpt>
      <trkpt lat="47.573429" lon="8.044953">
        <ele>424.293327</ele>
        <time>2021-11-07T13:27:10.316Z</time>
      </trkpt>
      <trkpt lat="47.573633" lon="8.044804">
        <ele>425.328196</ele>
        <time>2021-11-07T13:27:17.643Z</time>
      </trkpt>
      <trkpt lat="47.573815" lon="8.044678">
        <ele>426.113542</ele>
        <time>2021-11-07T13:27:24.564Z</time>
      </trkpt>
      <trkpt lat="47.573938" lon="8.044606">
        <ele>426.630572</ele>
        <time>2021-11-07T13:27:28.469Z</time>
      </trkpt>
      <trkpt lat="47.574051" lon="8.044531">
        <ele>427.114632</ele>
        <time>2021-11-07T13:27:32.766Z</time>
      </trkpt>
      <trkpt lat="47.574051" lon="8.044531">
        <ele>427.114632</ele>
        <time>2021-11-07T13:27:33.029Z</time>
      </trkpt>
      <trkpt lat="47.574051" lon="8.044531">
        <ele>427.114632</ele>
        <time>2021-11-07T13:27:33.074Z</time>
      </trkpt>
      <trkpt lat="47.574390" lon="8.044308">
        <ele>428.564662</ele>
        <time>2021-11-07T13:27:44.723Z</time>
      </trkpt>
      <trkpt lat="47.574471" lon="8.044253">
        <ele>428.912991</ele>
        <time>2021-11-07T13:27:47.189Z</time>
      </trkpt>
      <trkpt lat="47.574592" lon="8.044171">
        <ele>429.433157</ele>
        <time>2021-11-07T13:27:50.522Z</time>
      </trkpt>
      <trkpt lat="47.575389" lon="8.043092">
        <ele>433.595233</ele>
        <time>2021-11-07T13:28:18.271Z</time>
      </trkpt>
      <trkpt lat="47.575410" lon="8.043062">
        <ele>433.705919</ele>
        <time>2021-11-07T13:28:19.394Z</time>
      </trkpt>
      <trkpt lat="47.575563" lon="8.043212">
        <ele>434.402090</ele>
        <time>2021-11-07T13:28:25.142Z</time>
      </trkpt>
      <trkpt lat="47.575988" lon="8.043346">
        <ele>436.051114</ele>
        <time>2021-11-07T13:28:40.205Z</time>
      </trkpt>
      <trkpt lat="47.576305" lon="8.043445">
        <ele>437.280590</ele>
        <time>2021-11-07T13:28:52.183Z</time>
      </trkpt>
      <trkpt lat="47.576602" lon="8.043509">
        <ele>438.419599</ele>
        <time>2021-11-07T13:29:04.112Z</time>
      </trkpt>
      <trkpt lat="47.577767" lon="8.043445">
        <ele>445.570541</ele>
        <time>2021-11-07T13:29:54.935Z</time>
      </trkpt>
      <trkpt lat="47.579602" lon="8.042582">
        <ele>458.180519</ele>
        <time>2021-11-07T13:31:29.225Z</time>
      </trkpt>
      <trkpt lat="47.579854" lon="8.042661">
        <ele>459.917096</ele>
        <time>2021-11-07T13:31:41.054Z</time>
      </trkpt>
      <trkpt lat="47.580066" lon="8.042969">
        <ele>461.873259</ele>
        <time>2021-11-07T13:31:54.107Z</time>
      </trkpt>
      <trkpt lat="47.580389" lon="8.043200">
        <ele>463.688517</ele>
        <time>2021-11-07T13:32:09.023Z</time>
      </trkpt>
      <trkpt lat="47.580714" lon="8.043298">
        <ele>465.367274</ele>
        <time>2021-11-07T13:32:22.122Z</time>
      </trkpt>
      <trkpt lat="47.580962" lon="8.043344">
        <ele>466.632377</ele>
        <time>2021-11-07T13:32:31.793Z</time>
      </trkpt>
      <trkpt lat="47.581748" lon="8.042949">
        <ele>470.833297</ele>
        <time>2021-11-07T13:33:04.526Z</time>
      </trkpt>
      <trkpt lat="47.582369" lon="8.042854">
        <ele>474.695274</ele>
        <time>2021-11-07T13:33:29.541Z</time>
      </trkpt>
      <trkpt lat="47.582548" lon="8.042788">
        <ele>475.836873</ele>
        <time>2021-11-07T13:33:36.960Z</time>
      </trkpt>
      <trkpt lat="47.582987" lon="8.042543">
        <ele>478.740026</ele>
        <time>2021-11-07T13:33:57.287Z</time>
      </trkpt>
      <trkpt lat="47.583923" lon="8.042039">
        <ele>486.324682</ele>
        <time>2021-11-07T13:34:50.280Z</time>
      </trkpt>
      <trkpt lat="47.584299" lon="8.041690">
        <ele>490.402320</ele>
        <time>2021-11-07T13:35:16.371Z</time>
      </trkpt>
      <trkpt lat="47.584692" lon="8.041095">
        <ele>495.565483</ele>
        <time>2021-11-07T13:35:48.931Z</time>
      </trkpt>
      <trkpt lat="47.585259" lon="8.040798">
        <ele>501.201964</ele>
        <time>2021-11-07T13:36:24.592Z</time>
      </trkpt>
      <trkpt lat="47.585960" lon="8.040745">
        <ele>507.925626</ele>
        <time>2021-11-07T13:37:07.349Z</time>
      </trkpt>
      <trkpt lat="47.586513" lon="8.040805">
        <ele>513.237023</ele>
        <time>2021-11-07T13:37:39.021Z</time>
      </trkpt>
      <trkpt lat="47.587099" lon="8.040735">
        <ele>518.775939</ele>
        <time>2021-11-07T13:38:11.655Z</time>
      </trkpt>
      <trkpt lat="47.588395" lon="8.040359">
        <ele>531.051869</ele>
        <time>2021-11-07T13:39:29.283Z</time>
      </trkpt>
      <trkpt lat="47.588594" lon="8.040222">
        <ele>532.942166</ele>
        <time>2021-11-07T13:39:41.822Z</time>
      </trkpt>
      <trkpt lat="47.588796" lon="8.039938">
        <ele>534.922072</ele>
        <time>2021-11-07T13:39:56.984Z</time>
      </trkpt>
      <trkpt lat="47.589088" lon="8.039543">
        <ele>537.733354</ele>
        <time>2021-11-07T13:40:17.785Z</time>
      </trkpt>
      <trkpt lat="47.589257" lon="8.039326">
        <ele>539.323416</ele>
        <time>2021-11-07T13:40:29.218Z</time>
      </trkpt>
      <trkpt lat="47.589421" lon="8.039116">
        <ele>540.864613</ele>
        <time>2021-11-07T13:40:40.017Z</time>
      </trkpt>
      <trkpt lat="47.589508" lon="8.039049">
        <ele>541.561875</ele>
        <time>2021-11-07T13:40:44.744Z</time>
      </trkpt>
      <trkpt lat="47.589622" lon="8.038962">
        <ele>542.473780</ele>
        <time>2021-11-07T13:40:50.785Z</time>
      </trkpt>
      <trkpt lat="47.589703" lon="8.038941">
        <ele>543.058622</ele>
        <time>2021-11-07T13:40:55.041Z</time>
      </trkpt>
      <trkpt lat="47.590307" lon="8.038790">
        <ele>545.736586</ele>
        <time>2021-11-07T13:41:17.537Z</time>
      </trkpt>
      <trkpt lat="47.590407" lon="8.038758">
        <ele>545.900483</ele>
        <time>2021-11-07T13:41:21.416Z</time>
      </trkpt>
      <trkpt lat="47.590651" lon="8.038518">
        <ele>546.369583</ele>
        <time>2021-11-07T13:41:30.440Z</time>
      </trkpt>
      <trkpt lat="47.590891" lon="8.038167">
        <ele>546.909649</ele>
        <time>2021-11-07T13:41:39.089Z</time>
      </trkpt>
      <trkpt lat="47.590922" lon="8.038121">
        <ele>546.979912</ele>
        <time>2021-11-07T13:41:40.620Z</time>
      </trkpt>
      <trkpt lat="47.591079" lon="8.037653">
        <ele>547.544678</ele>
        <time>2021-11-07T13:41:48.276Z</time>
      </trkpt>
      <trkpt lat="47.591150" lon="8.037443">
        <ele>547.798493</ele>
        <time>2021-11-07T13:41:50.819Z</time>
      </trkpt>
      <trkpt lat="47.591044" lon="8.037455">
        <ele>547.968809</ele>
        <time>2021-11-07T13:41:52.074Z</time>
      </trkpt>
      <trkpt lat="47.590476" lon="8.037474">
        <ele>546.725238</ele>
        <time>2021-11-07T13:41:58.656Z</time>
      </trkpt>
      <trkpt lat="47.590067" lon="8.037365">
        <ele>545.476288</ele>
        <time>2021-11-07T13:42:02.975Z</time>
      </trkpt>
      <trkpt lat="47.589869" lon="8.037227">
        <ele>544.818733</ele>
        <time>2021-11-07T13:42:05.262Z</time>
      </trkpt>
      <trkpt lat="47.589825" lon="8.037196">
        <ele>544.672320</ele>
        <time>2021-11-07T13:42:05.722Z</time>
      </trkpt>
      <trkpt lat="47.589772" lon="8.037159">
        <ele>544.496256</ele>
        <time>2021-11-07T13:42:06.266Z</time>
      </trkpt>
      <trkpt lat="47.589499" lon="8.036832">
        <ele>543.441468</ele>
        <time>2021-11-07T13:42:09.690Z</time>
      </trkpt>
      <trkpt lat="47.589239" lon="8.036386">
        <ele>541.823698</ele>
        <time>2021-11-07T13:42:13.521Z</time>
      </trkpt>
      <trkpt lat="47.588947" lon="8.035308">
        <ele>537.385205</ele>
        <time>2021-11-07T13:42:20.822Z</time>
      </trkpt>
      <trkpt lat="47.588642" lon="8.034658">
        <ele>534.359808</ele>
        <time>2021-11-07T13:42:25.728Z</time>
      </trkpt>
      <trkpt lat="47.588478" lon="8.034510">
        <ele>533.272193</ele>
        <time>2021-11-07T13:42:27.472Z</time>
      </trkpt>
      <trkpt lat="47.587928" lon="8.034180">
        <ele>529.202410</ele>
        <time>2021-11-07T13:42:32.808Z</time>
      </trkpt>
      <trkpt lat="47.586980" lon="8.033883">
        <ele>522.231169</ele>
        <time>2021-11-07T13:42:41.442Z</time>
      </trkpt>
      <trkpt lat="47.585583" lon="8.032905">
        <ele>511.584537</ele>
        <time>2021-11-07T13:42:55.283Z</time>
      </trkpt>
      <trkpt lat="47.585091" lon="8.032467">
        <ele>507.683799</ele>
        <time>2021-11-07T13:43:00.502Z</time>
      </trkpt>
      <trkpt lat="47.584568" lon="8.032176">
        <ele>505.113529</ele>
        <time>2021-11-07T13:43:05.637Z</time>
      </trkpt>
      <trkpt lat="47.584000" lon="8.032100">
        <ele>502.602831</ele>
        <time>2021-11-07T13:43:11.065Z</time>
      </trkpt>
      <trkpt lat="47.583770" lon="8.032077">
        <ele>501.587989</ele>
        <time>2021-11-07T13:43:13.289Z</time>
      </trkpt>
      <trkpt lat="47.583557" lon="8.032062">
        <ele>500.649231</ele>
        <time>2021-11-07T13:43:15.455Z</time>
      </trkpt>
      <trkpt lat="47.583316" lon="8.032065">
        <ele>499.588227</ele>
        <time>2021-11-07T13:43:17.991Z</time>
      </trkpt>
      <trkpt lat="47.583028" lon="8.032087">
        <ele>499.244887</ele>
        <time>2021-11-07T13:43:21.132Z</time>
      </trkpt>
      <trkpt lat="47.582877" lon="8.032131">
        <ele>499.121873</ele>
        <time>2021-11-07T13:43:22.928Z</time>
      </trkpt>
      <trkpt lat="47.582534" lon="8.032340">
        <ele>498.825433</ele>
        <time>2021-11-07T13:43:27.345Z</time>
      </trkpt>
      <trkpt lat="47.582379" lon="8.032452">
        <ele>498.687596</ele>
        <time>2021-11-07T13:43:29.450Z</time>
      </trkpt>
      <trkpt lat="47.582305" lon="8.032518">
        <ele>498.618563</ele>
        <time>2021-11-07T13:43:30.600Z</time>
      </trkpt>
      <trkpt lat="47.582257" lon="8.032344">
        <ele>498.517199</ele>
        <time>2021-11-07T13:43:33.365Z</time>
      </trkpt>
      <trkpt lat="47.582218" lon="8.032127">
        <ele>498.396111</ele>
        <time>2021-11-07T13:43:36.607Z</time>
      </trkpt>
      <trkpt lat="47.582194" lon="8.031979">
        <ele>498.314035</ele>
        <time>2021-11-07T13:43:38.776Z</time>
      </trkpt>
      <trkpt lat="47.582207" lon="8.031849">
        <ele>498.243173</ele>
        <time>2021-11-07T13:43:40.908Z</time>
      </trkpt>
      <trkpt lat="47.581991" lon="8.031722">
        <ele>498.057425</ele>
        <time>2021-11-07T13:43:45.801Z</time>
      </trkpt>
      <trkpt lat="47.581914" lon="8.031633">
        <ele>497.995612</ele>
        <time>2021-11-07T13:43:48.174Z</time>
      </trkpt>
      <trkpt lat="47.581703" lon="8.031357">
        <ele>497.880607</ele>
        <time>2021-11-07T13:43:54.172Z</time>
      </trkpt>
      <trkpt lat="47.581603" lon="8.031197">
        <ele>497.820473</ele>
        <time>2021-11-07T13:43:57.549Z</time>
      </trkpt>
      <trkpt lat="47.581523" lon="8.031026">
        <ele>497.763102</ele>
        <time>2021-11-07T13:44:00.149Z</time>
      </trkpt>
      <trkpt lat="47.581423" lon="8.030639">
        <ele>497.648850</ele>
        <time>2021-11-07T13:44:05.616Z</time>
      </trkpt>
      <trkpt lat="47.581354" lon="8.030430">
        <ele>497.584701</ele>
        <time>2021-11-07T13:44:08.325Z</time>
      </trkpt>
      <trkpt lat="47.581171" lon="8.030156">
        <ele>497.478399</ele>
        <time>2021-11-07T13:44:13.022Z</time>
      </trkpt>
      <trkpt lat="47.580985" lon="8.029962">
        <ele>497.385451</ele>
        <time>2021-11-07T13:44:17.048Z</time>
      </trkpt>
      <trkpt lat="47.580745" lon="8.029776">
        <ele>497.269569</ele>
        <time>2021-11-07T13:44:21.611Z</time>
      </trkpt>
      <trkpt lat="47.580567" lon="8.029638">
        <ele>497.030495</ele>
        <time>2021-11-07T13:44:25.176Z</time>
      </trkpt>
      <trkpt lat="47.580537" lon="8.029599">
        <ele>496.983006</ele>
        <time>2021-11-07T13:44:25.789Z</time>
      </trkpt>
      <trkpt lat="47.580507" lon="8.029540">
        <ele>496.923688</ele>
        <time>2021-11-07T13:44:26.649Z</time>
      </trkpt>
      <trkpt lat="47.580457" lon="8.029426">
        <ele>496.814519</ele>
        <time>2021-11-07T13:44:28.221Z</time>
      </trkpt>
      <trkpt lat="47.580445" lon="8.029350">
        <ele>496.751853</ele>
        <time>2021-11-07T13:44:29.230Z</time>
      </trkpt>
      <trkpt lat="47.580435" lon="8.029225">
        <ele>496.650795</ele>
        <time>2021-11-07T13:44:30.745Z</time>
      </trkpt>
      <trkpt lat="47.580414" lon="8.028952">
        <ele>496.430198</ele>
        <time>2021-11-07T13:44:33.743Z</time>
      </trkpt>
      <trkpt lat="47.580414" lon="8.028741">
        <ele>496.260799</ele>
        <time>2021-11-07T13:44:36.281Z</time>
      </trkpt>
      <trkpt lat="47.580504" lon="8.027848">
        <ele>495.535903</ele>
        <time>2021-11-07T13:44:46.244Z</time>
      </trkpt>
      <trkpt lat="47.580430" lon="8.027348">
        <ele>495.130797</ele>
        <time>2021-11-07T13:44:52.083Z</time>
      </trkpt>
      <trkpt lat="47.580406" lon="8.027217">
        <ele>495.075780</ele>
        <time>2021-11-07T13:44:53.828Z</time>
      </trkpt>
      <trkpt lat="47.580391" lon="8.026955">
        <ele>494.969212</ele>
        <time>2021-11-07T13:44:56.932Z</time>
      </trkpt>
      <trkpt lat="47.580386" lon="8.026802">
        <ele>494.907130</ele>
        <time>2021-11-07T13:44:58.794Z</time>
      </trkpt>
      <trkpt lat="47.580341" lon="8.025695">
        <ele>494.457657</ele>
        <time>2021-11-07T13:45:12.655Z</time>
      </trkpt>
      <trkpt lat="47.580173" lon="8.024170">
        <ele>494.461038</ele>
        <time>2021-11-07T13:45:31.881Z</time>
      </trkpt>
      <trkpt lat="47.580262" lon="8.023307">
        <ele>495.098691</ele>
        <time>2021-11-07T13:45:44.992Z</time>
      </trkpt>
      <trkpt lat="47.580380" lon="8.022562">
        <ele>495.657631</ele>
        <time>2021-11-07T13:45:58.409Z</time>
      </trkpt>
      <trkpt lat="47.580425" lon="8.022255">
        <ele>495.887094</ele>
        <time>2021-11-07T13:46:04.493Z</time>
      </trkpt>
      <trkpt lat="47.580470" lon="8.021934">
        <ele>496.386523</ele>
        <time>2021-11-07T13:46:11.050Z</time>
      </trkpt>
      <trkpt lat="47.580271" lon="8.020243">
        <ele>500.291448</ele>
        <time>2021-11-07T13:46:55.153Z</time>
      </trkpt>
      <trkpt lat="47.580484" lon="8.019833">
        <ele>501.468699</ele>
        <time>2021-11-07T13:47:06.465Z</time>
      </trkpt>
      <trkpt lat="47.580955" lon="8.019317">
        <ele>502.598903</ele>
        <time>2021-11-07T13:47:22.618Z</time>
      </trkpt>
      <trkpt lat="47.580948" lon="8.019213">
        <ele>502.690506</ele>
        <time>2021-11-07T13:47:24.072Z</time>
      </trkpt>
      <trkpt lat="47.580916" lon="8.019035">
        <ele>502.851958</ele>
        <time>2021-11-07T13:47:26.729Z</time>
      </trkpt>
      <trkpt lat="47.580830" lon="8.018918">
        <ele>503.003618</ele>
        <time>2021-11-07T13:47:30.774Z</time>
      </trkpt>
      <trkpt lat="47.580782" lon="8.018916">
        <ele>503.066009</ele>
        <time>2021-11-07T13:47:31.821Z</time>
      </trkpt>
      <trkpt lat="47.580628" lon="8.018939">
        <ele>503.267114</ele>
        <time>2021-11-07T13:47:34.865Z</time>
      </trkpt>
      <trkpt lat="47.580282" lon="8.019086">
        <ele>503.734769</ele>
        <time>2021-11-07T13:47:42.811Z</time>
      </trkpt>
      <trkpt lat="47.580093" lon="8.019071">
        <ele>503.980689</ele>
        <time>2021-11-07T13:47:48.059Z</time>
      </trkpt>
      <trkpt lat="47.579943" lon="8.018927">
        <ele>504.212880</ele>
        <time>2021-11-07T13:47:50.347Z</time>
      </trkpt>
      <trkpt lat="47.579890" lon="8.018812">
        <ele>504.334951</ele>
        <time>2021-11-07T13:47:52.550Z</time>
      </trkpt>
      <trkpt lat="47.579827" lon="8.017916">
        <ele>504.487179</ele>
        <time>2021-11-07T13:48:00.054Z</time>
      </trkpt>
      <trkpt lat="47.579800" lon="8.017631">
        <ele>504.515563</ele>
        <time>2021-11-07T13:48:03.211Z</time>
      </trkpt>
      <trkpt lat="47.579770" lon="8.017313">
        <ele>504.547231</ele>
        <time>2021-11-07T13:48:05.659Z</time>
      </trkpt>
      <trkpt lat="47.579807" lon="8.016479">
        <ele>504.629662</ele>
        <time>2021-11-07T13:48:16.060Z</time>
      </trkpt>
      <trkpt lat="47.579782" lon="8.016013">
        <ele>504.661987</ele>
        <time>2021-11-07T13:48:22.132Z</time>
      </trkpt>
      <trkpt lat="47.579693" lon="8.015395">
        <ele>504.590659</ele>
        <time>2021-11-07T13:48:29.372Z</time>
      </trkpt>
      <trkpt lat="47.579677" lon="8.015285">
        <ele>504.577958</ele>
        <time>2021-11-07T13:48:30.226Z</time>
      </trkpt>
      <trkpt lat="47.579476" lon="8.014445">
        <ele>504.477355</ele>
        <time>2021-11-07T13:48:38.521Z</time>
      </trkpt>
      <trkpt lat="47.579390" lon="8.014221">
        <ele>504.448263</ele>
        <time>2021-11-07T13:48:40.551Z</time>
      </trkpt>
      <trkpt lat="47.579303" lon="8.013994">
        <ele>504.418794</ele>
        <time>2021-11-07T13:48:43.213Z</time>
      </trkpt>
      <trkpt lat="47.579083" lon="8.012800">
        <ele>504.100675</ele>
        <time>2021-11-07T13:48:53.875Z</time>
      </trkpt>
      <trkpt lat="47.578994" lon="8.011565">
        <ele>503.680369</ele>
        <time>2021-11-07T13:49:05.290Z</time>
      </trkpt>
      <trkpt lat="47.578877" lon="8.010552">
        <ele>503.187278</ele>
        <time>2021-11-07T13:49:14.764Z</time>
      </trkpt>
      <trkpt lat="47.578802" lon="8.010247">
        <ele>502.957854</ele>
        <time>2021-11-07T13:49:17.472Z</time>
      </trkpt>
      <trkpt lat="47.578506" lon="8.009815">
        <ele>502.522681</ele>
        <time>2021-11-07T13:49:22.765Z</time>
      </trkpt>
      <trkpt lat="47.578339" lon="8.009582">
        <ele>502.282419</ele>
        <time>2021-11-07T13:49:25.997Z</time>
      </trkpt>
      <trkpt lat="47.578275" lon="8.009410">
        <ele>502.143596</ele>
        <time>2021-11-07T13:49:27.469Z</time>
      </trkpt>
      <trkpt lat="47.578269" lon="8.009376">
        <ele>502.118759</ele>
        <time>2021-11-07T13:49:28.560Z</time>
      </trkpt>
      <trkpt lat="47.578332" lon="8.009223">
        <ele>501.992077</ele>
        <time>2021-11-07T13:49:29.967Z</time>
      </trkpt>
      <trkpt lat="47.578864" lon="8.008842">
        <ele>500.618143</ele>
        <time>2021-11-07T13:49:36.532Z</time>
      </trkpt>
      <trkpt lat="47.579619" lon="8.008172">
        <ele>496.360420</ele>
        <time>2021-11-07T13:49:45.157Z</time>
      </trkpt>
      <trkpt lat="47.579923" lon="8.008040">
        <ele>494.827671</ele>
        <time>2021-11-07T13:49:48.069Z</time>
      </trkpt>
      <trkpt lat="47.580912" lon="8.007336">
        <ele>486.957909</ele>
        <time>2021-11-07T13:49:57.775Z</time>
      </trkpt>
      <trkpt lat="47.581140" lon="8.006991">
        <ele>484.179684</ele>
        <time>2021-11-07T13:50:00.595Z</time>
      </trkpt>
      <trkpt lat="47.581321" lon="8.006142">
        <ele>479.057956</ele>
        <time>2021-11-07T13:50:05.792Z</time>
      </trkpt>
      <trkpt lat="47.581764" lon="8.005054">
        <ele>472.474748</ele>
        <time>2021-11-07T13:50:13.371Z</time>
      </trkpt>
      <trkpt lat="47.582188" lon="8.004718">
        <ele>468.889401</ele>
        <time>2021-11-07T13:50:17.640Z</time>
      </trkpt>
      <trkpt lat="47.582510" lon="8.004377">
        <ele>465.938372</ele>
        <time>2021-11-07T13:50:21.169Z</time>
      </trkpt>
      <trkpt lat="47.582604" lon="8.004164">
        <ele>464.657984</ele>
        <time>2021-11-07T13:50:22.711Z</time>
      </trkpt>
      <trkpt lat="47.582642" lon="8.003945">
        <ele>464.022936</ele>
        <time>2021-11-07T13:50:24.139Z</time>
      </trkpt>
      <trkpt lat="47.582727" lon="8.003464">
        <ele>463.592346</ele>
        <time>2021-11-07T13:50:27.262Z</time>
      </trkpt>
      <trkpt lat="47.582781" lon="8.003305">
        <ele>463.438189</ele>
        <time>2021-11-07T13:50:28.307Z</time>
      </trkpt>
      <trkpt lat="47.582789" lon="8.003167">
        <ele>463.318244</ele>
        <time>2021-11-07T13:50:29.361Z</time>
      </trkpt>
      <trkpt lat="47.582779" lon="8.003036">
        <ele>463.204078</ele>
        <time>2021-11-07T13:50:31.646Z</time>
      </trkpt>
      <trkpt lat="47.582735" lon="8.002783">
        <ele>462.977823</ele>
        <time>2021-11-07T13:50:33.361Z</time>
      </trkpt>
      <trkpt lat="47.582722" lon="8.002476">
        <ele>462.711446</ele>
        <time>2021-11-07T13:50:38.463Z</time>
      </trkpt>
      <trkpt lat="47.582770" lon="8.002301">
        <ele>462.547851</ele>
        <time>2021-11-07T13:50:39.777Z</time>
      </trkpt>
      <trkpt lat="47.583138" lon="8.001749">
        <ele>461.875762</ele>
        <time>2021-11-07T13:50:51.914Z</time>
      </trkpt>
      <trkpt lat="47.583129" lon="8.001600">
        <ele>462.223392</ele>
        <time>2021-11-07T13:50:56.351Z</time>
      </trkpt>
      <trkpt lat="47.583038" lon="8.001422">
        <ele>463.310701</ele>
        <time>2021-11-07T13:50:58.025Z</time>
      </trkpt>
      <trkpt lat="47.582884" lon="8.001201">
        <ele>464.857584</ele>
        <time>2021-11-07T13:51:08.343Z</time>
      </trkpt>
      <trkpt lat="47.582718" lon="8.001131">
        <ele>466.103174</ele>
        <time>2021-11-07T13:51:13.490Z</time>
      </trkpt>
      <trkpt lat="47.582286" lon="8.001289">
        <ele>469.314515</ele>
        <time>2021-11-07T13:51:36.618Z</time>
      </trkpt>
      <trkpt lat="47.582003" lon="8.001392">
        <ele>471.417654</ele>
        <time>2021-11-07T13:51:51.310Z</time>
      </trkpt>
      <trkpt lat="47.581843" lon="8.001622">
        <ele>473.026141</ele>
        <time>2021-11-07T13:52:03.663Z</time>
      </trkpt>
      <trkpt lat="47.581587" lon="8.002199">
        <ele>475.774603</ele>
        <time>2021-11-07T13:52:29.274Z</time>
      </trkpt>
      <trkpt lat="47.581538" lon="8.002492">
        <ele>476.676509</ele>
        <time>2021-11-07T13:52:37.371Z</time>
      </trkpt>
      <trkpt lat="47.581433" lon="8.002768">
        <ele>477.623230</ele>
        <time>2021-11-07T13:52:46.488Z</time>
      </trkpt>
      <trkpt lat="47.580693" lon="8.003731">
        <ele>481.984581</ele>
        <time>2021-11-07T13:53:13.976Z</time>
      </trkpt>
      <trkpt lat="47.580305" lon="8.004384">
        <ele>482.554399</ele>
        <time>2021-11-07T13:53:21.936Z</time>
      </trkpt>
      <trkpt lat="47.579909" lon="8.004868">
        <ele>482.289524</ele>
        <time>2021-11-07T13:53:27.628Z</time>
      </trkpt>
      <trkpt lat="47.579228" lon="8.005324">
        <ele>481.903877</ele>
        <time>2021-11-07T13:53:36.450Z</time>
      </trkpt>
      <trkpt lat="47.578736" lon="8.005500">
        <ele>483.041300</ele>
        <time>2021-11-07T13:53:45.114Z</time>
      </trkpt>
      <trkpt lat="47.578325" lon="8.005530">
        <ele>484.349567</ele>
        <time>2021-11-07T13:53:55.234Z</time>
      </trkpt>
      <trkpt lat="47.578086" lon="8.005441">
        <ele>485.133023</ele>
        <time>2021-11-07T13:54:02.400Z</time>
      </trkpt>
      <trkpt lat="47.577792" lon="8.005044">
        <ele>486.397397</ele>
        <time>2021-11-07T13:54:15.802Z</time>
      </trkpt>
      <trkpt lat="47.577375" lon="8.004938">
        <ele>487.836093</ele>
        <time>2021-11-07T13:54:31.903Z</time>
      </trkpt>
      <trkpt lat="47.576902" lon="8.005070">
        <ele>490.135762</ele>
        <time>2021-11-07T13:54:50.658Z</time>
      </trkpt>
      <trkpt lat="47.575892" lon="8.005591">
        <ele>495.245332</ele>
        <time>2021-11-07T13:55:28.063Z</time>
      </trkpt>
      <trkpt lat="47.575756" lon="8.005585">
        <ele>495.895421</ele>
        <time>2021-11-07T13:55:32.114Z</time>
      </trkpt>
      <trkpt lat="47.575531" lon="8.005431">
        <ele>496.180808</ele>
        <time>2021-11-07T13:55:38.718Z</time>
      </trkpt>
      <trkpt lat="47.575508" lon="8.005404">
        <ele>496.185422</ele>
        <time>2021-11-07T13:55:39.538Z</time>
      </trkpt>
      <trkpt lat="47.575411" lon="8.005256">
        <ele>496.207316</ele>
        <time>2021-11-07T13:55:42.587Z</time>
      </trkpt>
      <trkpt lat="47.575168" lon="8.004892">
        <ele>496.261652</ele>
        <time>2021-11-07T13:55:48.261Z</time>
      </trkpt>
      <trkpt lat="47.574764" lon="8.003762">
        <ele>496.397346</ele>
        <time>2021-11-07T13:55:59.012Z</time>
      </trkpt>
      <trkpt lat="47.574686" lon="8.003684">
        <ele>496.412145</ele>
        <time>2021-11-07T13:55:59.984Z</time>
      </trkpt>
      <trkpt lat="47.574392" lon="8.003728">
        <ele>496.143950</ele>
        <time>2021-11-07T13:56:03.390Z</time>
      </trkpt>
      <trkpt lat="47.574305" lon="8.003732">
        <ele>495.988795</ele>
        <time>2021-11-07T13:56:04.239Z</time>
      </trkpt>
      <trkpt lat="47.574217" lon="8.003704">
        <ele>495.828358</ele>
        <time>2021-11-07T13:56:05.186Z</time>
      </trkpt>
      <trkpt lat="47.573800" lon="8.003256">
        <ele>494.910329</ele>
        <time>2021-11-07T13:56:10.887Z</time>
      </trkpt>
      <trkpt lat="47.573718" lon="8.003157">
        <ele>494.721810</ele>
        <time>2021-11-07T13:56:11.922Z</time>
      </trkpt>
      <trkpt lat="47.573679" lon="8.003065">
        <ele>494.591144</ele>
        <time>2021-11-07T13:56:12.663Z</time>
      </trkpt>
      <trkpt lat="47.573643" lon="8.002920">
        <ele>494.405338</ele>
        <time>2021-11-07T13:56:13.855Z</time>
      </trkpt>
      <trkpt lat="47.573502" lon="8.002634">
        <ele>493.979351</ele>
        <time>2021-11-07T13:56:16.342Z</time>
      </trkpt>
      <trkpt lat="47.573400" lon="8.002344">
        <ele>493.586052</ele>
        <time>2021-11-07T13:56:18.912Z</time>
      </trkpt>
      <trkpt lat="47.573126" lon="8.002031">
        <ele>493.353689</ele>
        <time>2021-11-07T13:56:23.464Z</time>
      </trkpt>
      <trkpt lat="47.573026" lon="8.001932">
        <ele>493.459182</ele>
        <time>2021-11-07T13:56:24.910Z</time>
      </trkpt>
      <trkpt lat="47.572938" lon="8.001919">
        <ele>493.536763</ele>
        <time>2021-11-07T13:56:26.749Z</time>
      </trkpt>
      <trkpt lat="47.572940" lon="8.001742">
        <ele>493.641534</ele>
        <time>2021-11-07T13:56:29.174Z</time>
      </trkpt>
      <trkpt lat="47.572943" lon="8.001367">
        <ele>493.863490</ele>
        <time>2021-11-07T13:56:33.081Z</time>
      </trkpt>
      <trkpt lat="47.572935" lon="8.001208">
        <ele>493.957854</ele>
        <time>2021-11-07T13:56:35.416Z</time>
      </trkpt>
      <trkpt lat="47.572887" lon="8.000996">
        <ele>494.090201</ele>
        <time>2021-11-07T13:56:37.847Z</time>
      </trkpt>
      <trkpt lat="47.572824" lon="8.000753">
        <ele>494.244273</ele>
        <time>2021-11-07T13:56:41.987Z</time>
      </trkpt>
      <trkpt lat="47.572747" lon="8.000534">
        <ele>494.390432</ele>
        <time>2021-11-07T13:56:44.644Z</time>
      </trkpt>
      <trkpt lat="47.572662" lon="8.000300">
        <ele>494.547722</ele>
        <time>2021-11-07T13:56:49.135Z</time>
      </trkpt>
      <trkpt lat="47.572611" lon="8.000059">
        <ele>494.697208</ele>
        <time>2021-11-07T13:56:52.514Z</time>
      </trkpt>
      <trkpt lat="47.572543" lon="7.999708">
        <ele>495.087083</ele>
        <time>2021-11-07T13:56:58.829Z</time>
      </trkpt>
      <trkpt lat="47.572560" lon="7.999471">
        <ele>495.453970</ele>
        <time>2021-11-07T13:57:01.979Z</time>
      </trkpt>
      <trkpt lat="47.572588" lon="7.999397">
        <ele>495.584575</ele>
        <time>2021-11-07T13:57:03.430Z</time>
      </trkpt>
      <trkpt lat="47.572623" lon="7.999326">
        <ele>495.719938</ele>
        <time>2021-11-07T13:57:05.331Z</time>
      </trkpt>
      <trkpt lat="47.572684" lon="7.999259">
        <ele>495.893171</ele>
        <time>2021-11-07T13:57:07.459Z</time>
      </trkpt>
      <trkpt lat="47.572737" lon="7.999234">
        <ele>496.020077</ele>
        <time>2021-11-07T13:57:08.853Z</time>
      </trkpt>
      <trkpt lat="47.572701" lon="7.999118">
        <ele>496.216631</ele>
        <time>2021-11-07T13:57:10.378Z</time>
      </trkpt>
      <trkpt lat="47.572664" lon="7.998959">
        <ele>496.475540</ele>
        <time>2021-11-07T13:57:13.536Z</time>
      </trkpt>
      <trkpt lat="47.572708" lon="7.998779">
        <ele>496.770253</ele>
        <time>2021-11-07T13:57:17.396Z</time>
      </trkpt>
      <trkpt lat="47.572763" lon="7.998535">
        <ele>497.166268</ele>
        <time>2021-11-07T13:57:21.070Z</time>
      </trkpt>
      <trkpt lat="47.572796" lon="7.998352">
        <ele>497.457861</ele>
        <time>2021-11-07T13:57:24.912Z</time>
      </trkpt>
      <trkpt lat="47.572807" lon="7.998270">
        <ele>497.586560</ele>
        <time>2021-11-07T13:57:26.609Z</time>
      </trkpt>
      <trkpt lat="47.572559" lon="7.996184">
        <ele>499.990034</ele>
        <time>2021-11-07T13:57:58.280Z</time>
      </trkpt>
      <trkpt lat="47.572468" lon="7.995163">
        <ele>500.874361</ele>
        <time>2021-11-07T13:58:11.166Z</time>
      </trkpt>
      <trkpt lat="47.572460" lon="7.995058">
        <ele>500.965095</ele>
        <time>2021-11-07T13:58:12.417Z</time>
      </trkpt>
      <trkpt lat="47.572368" lon="7.994372">
        <ele>501.169997</ele>
        <time>2021-11-07T13:58:20.168Z</time>
      </trkpt>
      <trkpt lat="47.572249" lon="7.994022">
        <ele>501.144321</ele>
        <time>2021-11-07T13:58:24.322Z</time>
      </trkpt>
      <trkpt lat="47.572207" lon="7.993915">
        <ele>501.136211</ele>
        <time>2021-11-07T13:58:25.546Z</time>
      </trkpt>
      <trkpt lat="47.572062" lon="7.993506">
        <ele>501.105942</ele>
        <time>2021-11-07T13:58:30.100Z</time>
      </trkpt>
      <trkpt lat="47.571990" lon="7.993258">
        <ele>501.088255</ele>
        <time>2021-11-07T13:58:32.535Z</time>
      </trkpt>
      <trkpt lat="47.571883" lon="7.992565">
        <ele>501.041681</ele>
        <time>2021-11-07T13:58:38.889Z</time>
      </trkpt>
      <trkpt lat="47.571712" lon="7.990384">
        <ele>500.888414</ele>
        <time>2021-11-07T13:58:58.501Z</time>
      </trkpt>
      <trkpt lat="47.571710" lon="7.989958">
        <ele>500.858411</ele>
        <time>2021-11-07T13:59:03.210Z</time>
      </trkpt>
      <trkpt lat="47.571711" lon="7.989669">
        <ele>500.838056</ele>
        <time>2021-11-07T13:59:06.810Z</time>
      </trkpt>
      <trkpt lat="47.571580" lon="7.989167">
        <ele>500.991835</ele>
        <time>2021-11-07T13:59:13.603Z</time>
      </trkpt>
      <trkpt lat="47.571208" lon="7.988246">
        <ele>501.324689</ele>
        <time>2021-11-07T13:59:28.003Z</time>
      </trkpt>
      <trkpt lat="47.571180" lon="7.987989">
        <ele>501.405414</ele>
        <time>2021-11-07T13:59:31.702Z</time>
      </trkpt>
      <trkpt lat="47.571168" lon="7.987874">
        <ele>501.441497</ele>
        <time>2021-11-07T13:59:33.733Z</time>
      </trkpt>
      <trkpt lat="47.571268" lon="7.987105">
        <ele>501.433176</ele>
        <time>2021-11-07T13:59:40.880Z</time>
      </trkpt>
      <trkpt lat="47.571515" lon="7.986697">
        <ele>499.666489</ele>
        <time>2021-11-07T13:59:44.894Z</time>
      </trkpt>
      <trkpt lat="47.571904" lon="7.986414">
        <ele>497.596502</ele>
        <time>2021-11-07T13:59:49.232Z</time>
      </trkpt>
      <trkpt lat="47.572042" lon="7.986160">
        <ele>496.545473</ele>
        <time>2021-11-07T13:59:51.368Z</time>
      </trkpt>
      <trkpt lat="47.571967" lon="7.986077">
        <ele>496.098361</ele>
        <time>2021-11-07T13:59:52.209Z</time>
      </trkpt>
      <trkpt lat="47.571694" lon="7.985779">
        <ele>494.478778</ele>
        <time>2021-11-07T13:59:55.272Z</time>
      </trkpt>
      <trkpt lat="47.571104" lon="7.985841">
        <ele>489.455414</ele>
        <time>2021-11-07T14:00:00.501Z</time>
      </trkpt>
      <trkpt lat="47.570598" lon="7.985658">
        <ele>483.108185</ele>
        <time>2021-11-07T14:00:04.882Z</time>
      </trkpt>
      <trkpt lat="47.570188" lon="7.985852">
        <ele>477.863333</ele>
        <time>2021-11-07T14:00:08.468Z</time>
      </trkpt>
      <trkpt lat="47.569899" lon="7.986324">
        <ele>472.622710</ele>
        <time>2021-11-07T14:00:12.072Z</time>
      </trkpt>
      <trkpt lat="47.569720" lon="7.986239">
        <ele>470.330335</ele>
        <time>2021-11-07T14:00:13.648Z</time>
      </trkpt>
      <trkpt lat="47.569544" lon="7.985948">
        <ele>467.110086</ele>
        <time>2021-11-07T14:00:15.862Z</time>
      </trkpt>
      <trkpt lat="47.569441" lon="7.985823">
        <ele>465.484254</ele>
        <time>2021-11-07T14:00:16.966Z</time>
      </trkpt>
      <trkpt lat="47.569224" lon="7.985557">
        <ele>462.045074</ele>
        <time>2021-11-07T14:00:19.340Z</time>
      </trkpt>
      <trkpt lat="47.568880" lon="7.985270">
        <ele>457.223916</ele>
        <time>2021-11-07T14:00:22.652Z</time>
      </trkpt>
      <trkpt lat="47.567629" lon="7.984321">
        <ele>443.157740</ele>
        <time>2021-11-07T14:00:34.710Z</time>
      </trkpt>
      <trkpt lat="47.567590" lon="7.984165">
        <ele>442.252211</ele>
        <time>2021-11-07T14:00:35.721Z</time>
      </trkpt>
      <trkpt lat="47.567683" lon="7.983121">
        <ele>436.520360</ele>
        <time>2021-11-07T14:00:42.163Z</time>
      </trkpt>
      <trkpt lat="47.567696" lon="7.982527">
        <ele>433.653156</ele>
        <time>2021-11-07T14:00:45.815Z</time>
      </trkpt>
      <trkpt lat="47.567624" lon="7.981800">
        <ele>430.712227</ele>
        <time>2021-11-07T14:00:50.381Z</time>
      </trkpt>
      <trkpt lat="47.567665" lon="7.981438">
        <ele>429.243084</ele>
        <time>2021-11-07T14:00:52.666Z</time>
      </trkpt>
      <trkpt lat="47.567933" lon="7.980942">
        <ele>426.699793</ele>
        <time>2021-11-07T14:00:56.625Z</time>
      </trkpt>
      <trkpt lat="47.567985" lon="7.980685">
        <ele>425.625924</ele>
        <time>2021-11-07T14:00:58.295Z</time>
      </trkpt>
      <trkpt lat="47.568061" lon="7.979013">
        <ele>419.295545</ele>
        <time>2021-11-07T14:01:08.715Z</time>
      </trkpt>
      <trkpt lat="47.568118" lon="7.978684">
        <ele>418.036750</ele>
        <time>2021-11-07T14:01:10.858Z</time>
      </trkpt>
      <trkpt lat="47.568567" lon="7.977498">
        <ele>412.222867</ele>
        <time>2021-11-07T14:01:19.569Z</time>
      </trkpt>
      <trkpt lat="47.568631" lon="7.977178">
        <ele>410.137942</ele>
        <time>2021-11-07T14:01:21.571Z</time>
      </trkpt>
      <trkpt lat="47.568704" lon="7.977054">
        <ele>409.109941</ele>
        <time>2021-11-07T14:01:22.753Z</time>
      </trkpt>
      <trkpt lat="47.568987" lon="7.976683">
        <ele>405.611938</ele>
        <time>2021-11-07T14:01:26.060Z</time>
      </trkpt>
      <trkpt lat="47.569048" lon="7.976403">
        <ele>403.773950</ele>
        <time>2021-11-07T14:01:27.729Z</time>
      </trkpt>
      <trkpt lat="47.568939" lon="7.976270">
        <ele>402.466792</ele>
        <time>2021-11-07T14:01:28.938Z</time>
      </trkpt>
      <trkpt lat="47.568748" lon="7.976336">
        <ele>400.651008</ele>
        <time>2021-11-07T14:01:30.595Z</time>
      </trkpt>
      <trkpt lat="47.568519" lon="7.976515">
        <ele>398.254042</ele>
        <time>2021-11-07T14:01:32.796Z</time>
      </trkpt>
      <trkpt lat="47.568316" lon="7.976569">
        <ele>395.805342</ele>
        <time>2021-11-07T14:01:34.517Z</time>
      </trkpt>
      <trkpt lat="47.568107" lon="7.976469">
        <ele>392.800724</ele>
        <time>2021-11-07T14:01:36.402Z</time>
      </trkpt>
      <trkpt lat="47.567987" lon="7.976370">
        <ele>390.921809</ele>
        <time>2021-11-07T14:01:37.540Z</time>
      </trkpt>
      <trkpt lat="47.567801" lon="7.976285">
        <ele>388.258940</ele>
        <time>2021-11-07T14:01:39.204Z</time>
      </trkpt>
      <trkpt lat="47.567627" lon="7.976382">
        <ele>385.715634</ele>
        <time>2021-11-07T14:01:40.738Z</time>
      </trkpt>
      <trkpt lat="47.567340" lon="7.976629">
        <ele>381.175230</ele>
        <time>2021-11-07T14:01:43.495Z</time>
      </trkpt>
      <trkpt lat="47.567134" lon="7.976669">
        <ele>378.332874</ele>
        <time>2021-11-07T14:01:45.274Z</time>
      </trkpt>
      <trkpt lat="47.566939" lon="7.976573">
        <ele>375.521763</ele>
        <time>2021-11-07T14:01:46.968Z</time>
      </trkpt>
      <trkpt lat="47.566852" lon="7.976458">
        <ele>373.926905</ele>
        <time>2021-11-07T14:01:47.942Z</time>
      </trkpt>
      <trkpt lat="47.566673" lon="7.975768">
        <ele>367.982996</ele>
        <time>2021-11-07T14:01:52.088Z</time>
      </trkpt>
      <trkpt lat="47.566542" lon="7.975527">
        <ele>365.562430</ele>
        <time>2021-11-07T14:01:53.841Z</time>
      </trkpt>
      <trkpt lat="47.566200" lon="7.975405">
        <ele>361.484749</ele>
        <time>2021-11-07T14:01:56.859Z</time>
      </trkpt>
      <trkpt lat="47.565964" lon="7.975378">
        <ele>358.740902</ele>
        <time>2021-11-07T14:01:58.934Z</time>
      </trkpt>
      <trkpt lat="47.565867" lon="7.975381">
        <ele>357.616235</ele>
        <time>2021-11-07T14:01:59.741Z</time>
      </trkpt>
      <trkpt lat="47.565200" lon="7.975372">
        <ele>350.301425</ele>
        <time>2021-11-07T14:02:05.499Z</time>
      </trkpt>
      <trkpt lat="47.564852" lon="7.975095">
        <ele>346.618644</ele>
        <time>2021-11-07T14:02:08.892Z</time>
      </trkpt>
      <trkpt lat="47.563511" lon="7.973794">
        <ele>331.563480</ele>
        <time>2021-11-07T14:02:22.872Z</time>
      </trkpt>
      <trkpt lat="47.563140" lon="7.973536">
        <ele>327.622713</ele>
        <time>2021-11-07T14:02:26.421Z</time>
      </trkpt>
      <trkpt lat="47.563057" lon="7.973484">
        <ele>326.756199</ele>
        <time>2021-11-07T14:02:27.199Z</time>
      </trkpt>
      <trkpt lat="47.562835" lon="7.973351">
        <ele>324.453620</ele>
        <time>2021-11-07T14:02:29.264Z</time>
      </trkpt>
      <trkpt lat="47.562624" lon="7.973211">
        <ele>322.230578</ele>
        <time>2021-11-07T14:02:31.267Z</time>
      </trkpt>
      <trkpt lat="47.562482" lon="7.973084">
        <ele>320.635719</ele>
        <time>2021-11-07T14:02:32.700Z</time>
      </trkpt>
      <trkpt lat="47.562391" lon="7.972987">
        <ele>319.557821</ele>
        <time>2021-11-07T14:02:33.654Z</time>
      </trkpt>
      <trkpt lat="47.562270" lon="7.972880">
        <ele>318.202887</ele>
        <time>2021-11-07T14:02:34.869Z</time>
      </trkpt>
      <trkpt lat="47.562247" lon="7.972843">
        <ele>317.886146</ele>
        <time>2021-11-07T14:02:35.148Z</time>
      </trkpt>
      <trkpt lat="47.562063" lon="7.972426">
        <ele>315.068717</ele>
        <time>2021-11-07T14:02:38.049Z</time>
      </trkpt>
      <trkpt lat="47.561984" lon="7.972078">
        <ele>312.992476</ele>
        <time>2021-11-07T14:02:40.160Z</time>
      </trkpt>
      <trkpt lat="47.561959" lon="7.971806">
        <ele>311.440169</ele>
        <time>2021-11-07T14:02:41.768Z</time>
      </trkpt>
      <trkpt lat="47.561856" lon="7.971566">
        <ele>309.831790</ele>
        <time>2021-11-07T14:02:43.407Z</time>
      </trkpt>
      <trkpt lat="47.561716" lon="7.971255">
        <ele>307.717727</ele>
        <time>2021-11-07T14:02:45.674Z</time>
      </trkpt>
      <trkpt lat="47.561682" lon="7.971192">
        <ele>307.261551</ele>
        <time>2021-11-07T14:02:46.140Z</time>
      </trkpt>
      <trkpt lat="47.561534" lon="7.970899">
        <ele>305.191907</ele>
        <time>2021-11-07T14:02:48.368Z</time>
      </trkpt>
      <trkpt lat="47.561319" lon="7.970293">
        <ele>302.212786</ele>
        <time>2021-11-07T14:02:52.721Z</time>
      </trkpt>
      <trkpt lat="47.561300" lon="7.970209">
        <ele>301.998640</ele>
        <time>2021-11-07T14:02:53.237Z</time>
      </trkpt>
      <trkpt lat="47.561250" lon="7.969992">
        <ele>301.444379</ele>
        <time>2021-11-07T14:02:54.848Z</time>
      </trkpt>
      <trkpt lat="47.561207" lon="7.969794">
        <ele>300.941603</ele>
        <time>2021-11-07T14:02:56.236Z</time>
      </trkpt>
      <trkpt lat="47.561077" lon="7.969584">
        <ele>300.252755</ele>
        <time>2021-11-07T14:02:58.062Z</time>
      </trkpt>
      <trkpt lat="47.561012" lon="7.969521">
        <ele>299.974544</ele>
        <time>2021-11-07T14:02:58.883Z</time>
      </trkpt>
      <trkpt lat="47.561075" lon="7.969222">
        <ele>299.217393</ele>
        <time>2021-11-07T14:03:00.887Z</time>
      </trkpt>
      <trkpt lat="47.561101" lon="7.969103">
        <ele>298.915047</ele>
        <time>2021-11-07T14:03:01.769Z</time>
      </trkpt>
      <trkpt lat="47.561113" lon="7.969048">
        <ele>298.775326</ele>
        <time>2021-11-07T14:03:02.180Z</time>
      </trkpt>
      <trkpt lat="47.561146" lon="7.968816">
        <ele>298.202217</ele>
        <time>2021-11-07T14:03:03.859Z</time>
      </trkpt>
      <trkpt lat="47.561165" lon="7.968686">
        <ele>297.880697</ele>
        <time>2021-11-07T14:03:04.766Z</time>
      </trkpt>
      <trkpt lat="47.561196" lon="7.968420">
        <ele>297.228210</ele>
        <time>2021-11-07T14:03:07.004Z</time>
      </trkpt>
      <trkpt lat="47.561199" lon="7.968395">
        <ele>297.166832</ele>
        <time>2021-11-07T14:03:07.214Z</time>
      </trkpt>
      <trkpt lat="47.561236" lon="7.967223">
        <ele>295.280333</ele>
        <time>2021-11-07T14:03:16.298Z</time>
      </trkpt>
      <trkpt lat="47.561237" lon="7.967177">
        <ele>295.219256</ele>
        <time>2021-11-07T14:03:16.602Z</time>
      </trkpt>
      <trkpt lat="47.561251" lon="7.966549">
        <ele>294.385404</ele>
        <time>2021-11-07T14:03:21.287Z</time>
      </trkpt>
      <trkpt lat="47.561266" lon="7.965598">
        <ele>293.123019</ele>
        <time>2021-11-07T14:03:28.170Z</time>
      </trkpt>
      <trkpt lat="47.561250" lon="7.965305">
        <ele>292.771274</ele>
        <time>2021-11-07T14:03:30.314Z</time>
      </trkpt>
      <trkpt lat="47.561199" lon="7.964939">
        <ele>292.389826</ele>
        <time>2021-11-07T14:03:33.001Z</time>
      </trkpt>
      <trkpt lat="47.561111" lon="7.964529">
        <ele>291.950691</ele>
        <time>2021-11-07T14:03:36.257Z</time>
      </trkpt>
      <trkpt lat="47.561093" lon="7.964433">
        <ele>291.848994</ele>
        <time>2021-11-07T14:03:37.033Z</time>
      </trkpt>
      <trkpt lat="47.561035" lon="7.964188">
        <ele>291.583987</ele>
        <time>2021-11-07T14:03:39.077Z</time>
      </trkpt>
      <trkpt lat="47.561001" lon="7.964043">
        <ele>291.427308</ele>
        <time>2021-11-07T14:03:40.267Z</time>
      </trkpt>
      <trkpt lat="47.560931" lon="7.963733">
        <ele>291.093653</ele>
        <time>2021-11-07T14:03:42.906Z</time>
      </trkpt>
      <trkpt lat="47.560919" lon="7.963679">
        <ele>291.035625</ele>
        <time>2021-11-07T14:03:43.341Z</time>
      </trkpt>
      <trkpt lat="47.560851" lon="7.963377">
        <ele>290.710673</ele>
        <time>2021-11-07T14:03:45.879Z</time>
      </trkpt>
      <trkpt lat="47.560812" lon="7.963211">
        <ele>290.531264</ele>
        <time>2021-11-07T14:03:47.281Z</time>
      </trkpt>
      <trkpt lat="47.560771" lon="7.963029">
        <ele>290.335422</ele>
        <time>2021-11-07T14:03:48.771Z</time>
      </trkpt>
      <trkpt lat="47.560496" lon="7.961725">
        <ele>289.996209</ele>
        <time>2021-11-07T14:04:00.973Z</time>
      </trkpt>
      <trkpt lat="47.560385" lon="7.961242">
        <ele>289.919492</ele>
        <time>2021-11-07T14:04:06.032Z</time>
      </trkpt>
      <trkpt lat="47.560345" lon="7.961067">
        <ele>289.891712</ele>
        <time>2021-11-07T14:04:07.837Z</time>
      </trkpt>
      <trkpt lat="47.560357" lon="7.960950">
        <ele>289.873918</ele>
        <time>2021-11-07T14:04:09.035Z</time>
      </trkpt>
      <trkpt lat="47.560290" lon="7.960677">
        <ele>289.830241</ele>
        <time>2021-11-07T14:04:12.092Z</time>
      </trkpt>
      <trkpt lat="47.560252" lon="7.960649">
        <ele>289.820785</ele>
        <time>2021-11-07T14:04:12.700Z</time>
      </trkpt>
      <trkpt lat="47.559783" lon="7.958508">
        <ele>290.207747</ele>
        <time>2021-11-07T14:04:37.322Z</time>
      </trkpt>
      <trkpt lat="47.559715" lon="7.958231">
        <ele>290.272255</ele>
        <time>2021-11-07T14:04:40.538Z</time>
      </trkpt>
      <trkpt lat="47.559673" lon="7.958042">
        <ele>290.315804</ele>
        <time>2021-11-07T14:04:42.491Z</time>
      </trkpt>
      <trkpt lat="47.559665" lon="7.958004">
        <ele>290.324515</ele>
        <time>2021-11-07T14:04:43.196Z</time>
      </trkpt>
      <trkpt lat="47.559567" lon="7.957668">
        <ele>290.405539</ele>
        <time>2021-11-07T14:04:47.138Z</time>
      </trkpt>
      <trkpt lat="47.559506" lon="7.957457">
        <ele>290.456831</ele>
        <time>2021-11-07T14:04:49.775Z</time>
      </trkpt>
      <trkpt lat="47.559491" lon="7.957404">
        <ele>290.469674</ele>
        <time>2021-11-07T14:04:50.414Z</time>
      </trkpt>
      <trkpt lat="47.559249" lon="7.956674">
        <ele>290.651412</ele>
        <time>2021-11-07T14:04:59.344Z</time>
      </trkpt>
      <trkpt lat="47.558915" lon="7.955819">
        <ele>290.872165</ele>
        <time>2021-11-07T14:05:10.450Z</time>
      </trkpt>
      <trkpt lat="47.558601" lon="7.954714">
        <ele>291.255209</ele>
        <time>2021-11-07T14:05:22.623Z</time>
      </trkpt>
      <trkpt lat="47.558477" lon="7.954170">
        <ele>291.464046</ele>
        <time>2021-11-07T14:05:28.816Z</time>
      </trkpt>
      <trkpt lat="47.558440" lon="7.954011">
        <ele>291.525216</ele>
        <time>2021-11-07T14:05:30.740Z</time>
      </trkpt>
      <trkpt lat="47.558404" lon="7.953880">
        <ele>291.576661</ele>
        <time>2021-11-07T14:05:32.337Z</time>
      </trkpt>
      <trkpt lat="47.558342" lon="7.953593">
        <ele>291.686262</ele>
        <time>2021-11-07T14:05:35.775Z</time>
      </trkpt>
      <trkpt lat="47.558267" lon="7.953258">
        <ele>291.814634</ele>
        <time>2021-11-07T14:05:40.043Z</time>
      </trkpt>
      <trkpt lat="47.558267" lon="7.953258">
        <ele>291.814634</ele>
        <time>2021-11-07T14:05:40.045Z</time>
      </trkpt>
      <trkpt lat="47.558259" lon="7.953198">
        <ele>291.836878</ele>
        <time>2021-11-07T14:05:40.891Z</time>
      </trkpt>
      <trkpt lat="47.558243" lon="7.952923">
        <ele>291.969791</ele>
        <time>2021-11-07T14:05:44.465Z</time>
      </trkpt>
      <trkpt lat="47.558235" lon="7.952506">
        <ele>292.560552</ele>
        <time>2021-11-07T14:05:50.193Z</time>
      </trkpt>
      <trkpt lat="47.558237" lon="7.951803">
        <ele>293.556093</ele>
        <time>2021-11-07T14:06:00.691Z</time>
      </trkpt>
      <trkpt lat="47.558233" lon="7.951204">
        <ele>294.404390</ele>
        <time>2021-11-07T14:06:10.480Z</time>
      </trkpt>
      <trkpt lat="47.558230" lon="7.951089">
        <ele>294.567365</ele>
        <time>2021-11-07T14:06:12.510Z</time>
      </trkpt>
      <trkpt lat="47.558213" lon="7.950700">
        <ele>295.119390</ele>
        <time>2021-11-07T14:06:19.059Z</time>
      </trkpt>
      <trkpt lat="47.558189" lon="7.950493">
        <ele>295.416821</ele>
        <time>2021-11-07T14:06:22.905Z</time>
      </trkpt>
      <trkpt lat="47.558144" lon="7.950185">
        <ele>295.850513</ele>
        <time>2021-11-07T14:06:28.318Z</time>
      </trkpt>
      <trkpt lat="47.558088" lon="7.949755">
        <ele>296.422732</ele>
        <time>2021-11-07T14:06:36.129Z</time>
      </trkpt>
      <trkpt lat="47.558048" lon="7.949508">
        <ele>296.754634</ele>
        <time>2021-11-07T14:06:40.853Z</time>
      </trkpt>
      <trkpt lat="47.558012" lon="7.949057">
        <ele>297.348035</ele>
        <time>2021-11-07T14:06:48.334Z</time>
      </trkpt>
      <trkpt lat="47.557949" lon="7.947676">
        <ele>299.156621</ele>
        <time>2021-11-07T14:07:08.012Z</time>
      </trkpt>
      <trkpt lat="47.557939" lon="7.947500">
        <ele>299.179821</ele>
        <time>2021-11-07T14:07:10.166Z</time>
      </trkpt>
      <trkpt lat="47.557921" lon="7.947342">
        <ele>299.176627</ele>
        <time>2021-11-07T14:07:12.085Z</time>
      </trkpt>
      <trkpt lat="47.557885" lon="7.947164">
        <ele>299.172923</ele>
        <time>2021-11-07T14:07:13.772Z</time>
      </trkpt>
      <trkpt lat="47.557838" lon="7.946982">
        <ele>299.169039</ele>
        <time>2021-11-07T14:07:15.757Z</time>
      </trkpt>
      <trkpt lat="47.557770" lon="7.946815">
        <ele>299.165151</ele>
        <time>2021-11-07T14:07:17.638Z</time>
      </trkpt>
      <trkpt lat="47.557681" lon="7.946618">
        <ele>299.160426</ele>
        <time>2021-11-07T14:07:19.747Z</time>
      </trkpt>
      <trkpt lat="47.557536" lon="7.946344">
        <ele>299.153485</ele>
        <time>2021-11-07T14:07:23.074Z</time>
      </trkpt>
      <trkpt lat="47.557422" lon="7.946114">
        <ele>299.147797</ele>
        <time>2021-11-07T14:07:25.752Z</time>
      </trkpt>
      <trkpt lat="47.557371" lon="7.946013">
        <ele>299.145282</ele>
        <time>2021-11-07T14:07:27.060Z</time>
      </trkpt>
      <trkpt lat="47.557315" lon="7.945902">
        <ele>299.142520</ele>
        <time>2021-11-07T14:07:28.293Z</time>
      </trkpt>
      <trkpt lat="47.557274" lon="7.945819">
        <ele>299.140469</ele>
        <time>2021-11-07T14:07:29.212Z</time>
      </trkpt>
      <trkpt lat="47.557196" lon="7.945663">
        <ele>299.136599</ele>
        <time>2021-11-07T14:07:31.176Z</time>
      </trkpt>
      <trkpt lat="47.557110" lon="7.945492">
        <ele>299.132348</ele>
        <time>2021-11-07T14:07:33.143Z</time>
      </trkpt>
      <trkpt lat="47.556999" lon="7.945268">
        <ele>299.098418</ele>
        <time>2021-11-07T14:07:35.569Z</time>
      </trkpt>
      <trkpt lat="47.556919" lon="7.945110">
        <ele>299.057278</ele>
        <time>2021-11-07T14:07:37.263Z</time>
      </trkpt>
      <trkpt lat="47.556830" lon="7.944931">
        <ele>299.010971</ele>
        <time>2021-11-07T14:07:39.118Z</time>
      </trkpt>
      <trkpt lat="47.556650" lon="7.944566">
        <ele>298.916817</ele>
        <time>2021-11-07T14:07:43.091Z</time>
      </trkpt>
      <trkpt lat="47.556439" lon="7.944137">
        <ele>298.806255</ele>
        <time>2021-11-07T14:07:47.914Z</time>
      </trkpt>
      <trkpt lat="47.556345" lon="7.943946">
        <ele>298.757020</ele>
        <time>2021-11-07T14:07:50.096Z</time>
      </trkpt>
      <trkpt lat="47.556302" lon="7.943858">
        <ele>298.734392</ele>
        <time>2021-11-07T14:07:51.143Z</time>
      </trkpt>
      <trkpt lat="47.556288" lon="7.943830">
        <ele>298.727134</ele>
        <time>2021-11-07T14:07:51.497Z</time>
      </trkpt>
      <trkpt lat="47.556069" lon="7.943386">
        <ele>298.612593</ele>
        <time>2021-11-07T14:07:57.058Z</time>
      </trkpt>
      <trkpt lat="47.555911" lon="7.943042">
        <ele>298.530678</ele>
        <time>2021-11-07T14:08:01.461Z</time>
      </trkpt>
      <trkpt lat="47.555828" lon="7.942869">
        <ele>298.490774</ele>
        <time>2021-11-07T14:08:03.786Z</time>
      </trkpt>
      <trkpt lat="47.555765" lon="7.942732">
        <ele>298.459608</ele>
        <time>2021-11-07T14:08:05.498Z</time>
      </trkpt>
      <trkpt lat="47.555711" lon="7.942617">
        <ele>298.433271</ele>
        <time>2021-11-07T14:08:06.887Z</time>
      </trkpt>
      <trkpt lat="47.555633" lon="7.942436">
        <ele>298.392898</ele>
        <time>2021-11-07T14:08:09.009Z</time>
      </trkpt>
      <trkpt lat="47.555530" lon="7.942195">
        <ele>298.339271</ele>
        <time>2021-11-07T14:08:11.573Z</time>
      </trkpt>
      <trkpt lat="47.555494" lon="7.942104">
        <ele>298.319441</ele>
        <time>2021-11-07T14:08:12.519Z</time>
      </trkpt>
      <trkpt lat="47.555456" lon="7.942017">
        <ele>298.299959</ele>
        <time>2021-11-07T14:08:13.450Z</time>
      </trkpt>
      <trkpt lat="47.555313" lon="7.941663">
        <ele>298.222397</ele>
        <time>2021-11-07T14:08:16.954Z</time>
      </trkpt>
      <trkpt lat="47.555223" lon="7.941452">
        <ele>298.175472</ele>
        <time>2021-11-07T14:08:19.196Z</time>
      </trkpt>
      <trkpt lat="47.554981" lon="7.940858">
        <ele>298.010507</ele>
        <time>2021-11-07T14:08:25.489Z</time>
      </trkpt>
      <trkpt lat="47.554831" lon="7.940510">
        <ele>297.839339</ele>
        <time>2021-11-07T14:08:29.365Z</time>
      </trkpt>
      <trkpt lat="47.554786" lon="7.940407">
        <ele>297.788477</ele>
        <time>2021-11-07T14:08:30.440Z</time>
      </trkpt>
      <trkpt lat="47.554653" lon="7.940102">
        <ele>297.637949</ele>
        <time>2021-11-07T14:08:33.725Z</time>
      </trkpt>
      <trkpt lat="47.554446" lon="7.939644">
        <ele>297.409451</ele>
        <time>2021-11-07T14:08:38.534Z</time>
      </trkpt>
      <trkpt lat="47.554246" lon="7.939196">
        <ele>297.186786</ele>
        <time>2021-11-07T14:08:43.089Z</time>
      </trkpt>
      <trkpt lat="47.554109" lon="7.938885">
        <ele>297.032833</ele>
        <time>2021-11-07T14:08:46.232Z</time>
      </trkpt>
      <trkpt lat="47.554109" lon="7.938885">
        <ele>297.032833</ele>
        <time>2021-11-07T14:08:46.286Z</time>
      </trkpt>
      <trkpt lat="47.554109" lon="7.938885">
        <ele>297.032833</ele>
        <time>2021-11-07T14:08:46.427Z</time>
      </trkpt>
      <trkpt lat="47.553978" lon="7.938519">
        <ele>296.902146</ele>
        <time>2021-11-07T14:08:49.936Z</time>
      </trkpt>
      <trkpt lat="47.553909" lon="7.938319">
        <ele>296.844485</ele>
        <time>2021-11-07T14:08:51.870Z</time>
      </trkpt>
      <trkpt lat="47.553848" lon="7.938105">
        <ele>296.784851</ele>
        <time>2021-11-07T14:08:53.983Z</time>
      </trkpt>
      <trkpt lat="47.553805" lon="7.937948">
        <ele>296.741355</ele>
        <time>2021-11-07T14:08:55.522Z</time>
      </trkpt>
      <trkpt lat="47.553775" lon="7.937797">
        <ele>296.700947</ele>
        <time>2021-11-07T14:08:56.910Z</time>
      </trkpt>
      <trkpt lat="47.553769" lon="7.937764">
        <ele>296.692174</ele>
        <time>2021-11-07T14:08:57.225Z</time>
      </trkpt>
      <trkpt lat="47.553744" lon="7.937573">
        <ele>296.642229</ele>
        <time>2021-11-07T14:08:59.079Z</time>
      </trkpt>
      <trkpt lat="47.553727" lon="7.937367">
        <ele>296.588953</ele>
        <time>2021-11-07T14:09:00.987Z</time>
      </trkpt>
      <trkpt lat="47.553724" lon="7.937134">
        <ele>296.529129</ele>
        <time>2021-11-07T14:09:03.156Z</time>
      </trkpt>
      <trkpt lat="47.553732" lon="7.936945">
        <ele>296.480516</ele>
        <time>2021-11-07T14:09:04.949Z</time>
      </trkpt>
      <trkpt lat="47.553754" lon="7.936703">
        <ele>296.417831</ele>
        <time>2021-11-07T14:09:07.186Z</time>
      </trkpt>
      <trkpt lat="47.553763" lon="7.936585">
        <ele>296.387347</ele>
        <time>2021-11-07T14:09:08.316Z</time>
      </trkpt>
      <trkpt lat="47.553712" lon="7.936520">
        <ele>296.361759</ele>
        <time>2021-11-07T14:09:09.273Z</time>
      </trkpt>
      <trkpt lat="47.553680" lon="7.936493">
        <ele>296.347752</ele>
        <time>2021-11-07T14:09:09.796Z</time>
      </trkpt>
      <trkpt lat="47.553579" lon="7.936483">
        <ele>296.309249</ele>
        <time>2021-11-07T14:09:11.197Z</time>
      </trkpt>
      <trkpt lat="47.553468" lon="7.936486">
        <ele>296.271435</ele>
        <time>2021-11-07T14:09:12.787Z</time>
      </trkpt>
      <trkpt lat="47.553364" lon="7.936511">
        <ele>296.241327</ele>
        <time>2021-11-07T14:09:14.344Z</time>
      </trkpt>
      <trkpt lat="47.553216" lon="7.936481">
        <ele>296.198640</ele>
        <time>2021-11-07T14:09:16.651Z</time>
      </trkpt>
      <trkpt lat="47.553130" lon="7.936464">
        <ele>296.173846</ele>
        <time>2021-11-07T14:09:18.028Z</time>
      </trkpt>
      <trkpt lat="47.553015" lon="7.936441">
        <ele>296.140686</ele>
        <time>2021-11-07T14:09:19.934Z</time>
      </trkpt>
      <trkpt lat="47.552921" lon="7.936425">
        <ele>296.113647</ele>
        <time>2021-11-07T14:09:21.563Z</time>
      </trkpt>
      <trkpt lat="47.552791" lon="7.936403">
        <ele>296.076256</ele>
        <time>2021-11-07T14:09:23.402Z</time>
      </trkpt>
      <trkpt lat="47.552493" lon="7.936374">
        <ele>295.990915</ele>
        <time>2021-11-07T14:09:27.878Z</time>
      </trkpt>
      <trkpt lat="47.552311" lon="7.936357">
        <ele>295.938802</ele>
        <time>2021-11-07T14:09:30.399Z</time>
      </trkpt>
      <trkpt lat="47.551926" lon="7.936360">
        <ele>295.828781</ele>
        <time>2021-11-07T14:09:35.753Z</time>
      </trkpt>
      <trkpt lat="47.551730" lon="7.936373">
        <ele>295.772715</ele>
        <time>2021-11-07T14:09:38.361Z</time>
      </trkpt>
      <trkpt lat="47.551599" lon="7.936386">
        <ele>295.481669</ele>
        <time>2021-11-07T14:09:40.044Z</time>
      </trkpt>
      <trkpt lat="47.551477" lon="7.936401">
        <ele>295.197432</ele>
        <time>2021-11-07T14:09:41.404Z</time>
      </trkpt>
      <trkpt lat="47.551303" lon="7.936435">
        <ele>294.789934</ele>
        <time>2021-11-07T14:09:43.335Z</time>
      </trkpt>
      <trkpt lat="47.550607" lon="7.936694">
        <ele>293.123748</ele>
        <time>2021-11-07T14:09:50.966Z</time>
      </trkpt>
      <trkpt lat="47.550221" lon="7.936962">
        <ele>292.133996</ele>
        <time>2021-11-07T14:09:55.380Z</time>
      </trkpt>
      <trkpt lat="47.550098" lon="7.937070">
        <ele>291.802026</ele>
        <time>2021-11-07T14:09:56.764Z</time>
      </trkpt>
      <trkpt lat="47.549970" lon="7.937189">
        <ele>291.419510</ele>
        <time>2021-11-07T14:09:58.290Z</time>
      </trkpt>
      <trkpt lat="47.549714" lon="7.937478">
        <ele>290.507342</ele>
        <time>2021-11-07T14:10:01.522Z</time>
      </trkpt>
      <trkpt lat="47.549404" lon="7.937916">
        <ele>289.293278</ele>
        <time>2021-11-07T14:10:05.889Z</time>
      </trkpt>
      <trkpt lat="47.549168" lon="7.938309">
        <ele>288.287013</ele>
        <time>2021-11-07T14:10:09.487Z</time>
      </trkpt>
      <trkpt lat="47.549055" lon="7.938483">
        <ele>287.825104</ele>
        <time>2021-11-07T14:10:11.107Z</time>
      </trkpt>
      <trkpt lat="47.549043" lon="7.938513">
        <ele>287.758395</ele>
        <time>2021-11-07T14:10:11.331Z</time>
      </trkpt>
      <trkpt lat="47.548679" lon="7.939412">
        <ele>286.348579</ele>
        <time>2021-11-07T14:10:19.218Z</time>
      </trkpt>
      <trkpt lat="47.548592" lon="7.939666">
        <ele>286.239919</ele>
        <time>2021-11-07T14:10:21.598Z</time>
      </trkpt>
      <trkpt lat="47.548585" lon="7.939688">
        <ele>286.230641</ele>
        <time>2021-11-07T14:10:21.805Z</time>
      </trkpt>
      <trkpt lat="47.548563" lon="7.939753">
        <ele>286.202901</ele>
        <time>2021-11-07T14:10:22.408Z</time>
      </trkpt>
      <trkpt lat="47.548509" lon="7.939765">
        <ele>286.172039</ele>
        <time>2021-11-07T14:10:23.040Z</time>
      </trkpt>
      <trkpt lat="47.548479" lon="7.939789">
        <ele>286.152769</ele>
        <time>2021-11-07T14:10:23.441Z</time>
      </trkpt>
      <trkpt lat="47.548455" lon="7.939823">
        <ele>286.134002</ele>
        <time>2021-11-07T14:10:23.830Z</time>
      </trkpt>
      <trkpt lat="47.548437" lon="7.939866">
        <ele>286.114699</ele>
        <time>2021-11-07T14:10:24.251Z</time>
      </trkpt>
      <trkpt lat="47.548426" lon="7.939924">
        <ele>286.091716</ele>
        <time>2021-11-07T14:10:24.771Z</time>
      </trkpt>
      <trkpt lat="47.548427" lon="7.939957">
        <ele>286.079114</ele>
        <time>2021-11-07T14:10:25.088Z</time>
      </trkpt>
      <trkpt lat="47.548446" lon="7.940038">
        <ele>286.046401</ele>
        <time>2021-11-07T14:10:25.840Z</time>
      </trkpt>
      <trkpt lat="47.548468" lon="7.940081">
        <ele>286.025817</ele>
        <time>2021-11-07T14:10:26.354Z</time>
      </trkpt>
      <trkpt lat="47.548420" lon="7.940256">
        <ele>285.953755</ele>
        <time>2021-11-07T14:10:28.019Z</time>
      </trkpt>
      <trkpt lat="47.548303" lon="7.940599">
        <ele>285.807145</ele>
        <time>2021-11-07T14:10:31.926Z</time>
      </trkpt>
      <trkpt lat="47.548195" lon="7.940950">
        <ele>285.659986</ele>
        <time>2021-11-07T14:10:35.952Z</time>
      </trkpt>
      <trkpt lat="47.547852" lon="7.942144">
        <ele>285.754891</ele>
        <time>2021-11-07T14:10:50.425Z</time>
      </trkpt>
      <trkpt lat="47.547772" lon="7.942416">
        <ele>285.853404</ele>
        <time>2021-11-07T14:10:54.042Z</time>
      </trkpt>
      <trkpt lat="47.547436" lon="7.943731">
        <ele>286.320259</ele>
        <time>2021-11-07T14:11:10.273Z</time>
      </trkpt>
      <trkpt lat="47.547297" lon="7.944159">
        <ele>286.449337</ele>
        <time>2021-11-07T14:11:15.586Z</time>
      </trkpt>
      <trkpt lat="47.547246" lon="7.944330">
        <ele>286.495661</ele>
        <time>2021-11-07T14:11:17.769Z</time>
      </trkpt>
      <trkpt lat="47.547178" lon="7.944456">
        <ele>286.535635</ele>
        <time>2021-11-07T14:11:19.551Z</time>
      </trkpt>
      <trkpt lat="47.547134" lon="7.944545">
        <ele>286.562970</ele>
        <time>2021-11-07T14:11:20.619Z</time>
      </trkpt>
      <trkpt lat="47.546764" lon="7.945239">
        <ele>286.782108</ele>
        <time>2021-11-07T14:11:29.480Z</time>
      </trkpt>
      <trkpt lat="47.546516" lon="7.946289">
        <ele>287.262426</ele>
        <time>2021-11-07T14:11:41.451Z</time>
      </trkpt>
      <trkpt lat="47.546519" lon="7.946567">
        <ele>287.767487</ele>
        <time>2021-11-07T14:11:44.982Z</time>
      </trkpt>
      <trkpt lat="47.546565" lon="7.946721">
        <ele>288.073401</ele>
        <time>2021-11-07T14:11:47.494Z</time>
      </trkpt>
      <trkpt lat="47.546592" lon="7.946809">
        <ele>288.248995</ele>
        <time>2021-11-07T14:11:48.871Z</time>
      </trkpt>
      <trkpt lat="47.546633" lon="7.946946">
        <ele>288.521224</ele>
        <time>2021-11-07T14:11:51.124Z</time>
      </trkpt>
      <trkpt lat="47.546648" lon="7.947009">
        <ele>288.642576</ele>
        <time>2021-11-07T14:11:52.090Z</time>
      </trkpt>
      <trkpt lat="47.546651" lon="7.947115">
        <ele>288.835298</ele>
        <time>2021-11-07T14:11:53.878Z</time>
      </trkpt>
      <trkpt lat="47.546572" lon="7.947545">
        <ele>289.644823</ele>
        <time>2021-11-07T14:12:01.293Z</time>
      </trkpt>
      <trkpt lat="47.546159" lon="7.949303">
        <ele>293.341393</ele>
        <time>2021-11-07T14:12:40.059Z</time>
      </trkpt>
      <trkpt lat="47.545949" lon="7.950185">
        <ele>295.501888</ele>
        <time>2021-11-07T14:13:00.331Z</time>
      </trkpt>
      <trkpt lat="47.545884" lon="7.950363">
        <ele>295.969391</ele>
        <time>2021-11-07T14:13:04.264Z</time>
      </trkpt>
      <trkpt lat="47.545822" lon="7.950627">
        <ele>296.615103</ele>
        <time>2021-11-07T14:13:09.566Z</time>
      </trkpt>
      <trkpt lat="47.545810" lon="7.950694">
        <ele>296.775232</ele>
        <time>2021-11-07T14:13:10.797Z</time>
      </trkpt>
      <trkpt lat="47.545763" lon="7.950733">
        <ele>296.959592</ele>
        <time>2021-11-07T14:13:12.305Z</time>
      </trkpt>
      <trkpt lat="47.545659" lon="7.950771">
        <ele>297.326176</ele>
        <time>2021-11-07T14:13:14.726Z</time>
      </trkpt>
      <trkpt lat="47.545625" lon="7.950771">
        <ele>297.442535</ele>
        <time>2021-11-07T14:13:15.624Z</time>
      </trkpt>
      <trkpt lat="47.545567" lon="7.950765">
        <ele>297.641511</ele>
        <time>2021-11-07T14:13:17.037Z</time>
      </trkpt>
      <trkpt lat="47.545494" lon="7.950684">
        <ele>297.953643</ele>
        <time>2021-11-07T14:13:19.174Z</time>
      </trkpt>
      <trkpt lat="47.545434" lon="7.950668">
        <ele>298.041226</ele>
        <time>2021-11-07T14:13:20.653Z</time>
      </trkpt>
      <trkpt lat="47.545166" lon="7.950366">
        <ele>298.203209</ele>
        <time>2021-11-07T14:13:27.425Z</time>
      </trkpt>
      <trkpt lat="47.544901" lon="7.950044">
        <ele>298.368086</ele>
        <time>2021-11-07T14:13:33.060Z</time>
      </trkpt>
      <trkpt lat="47.544521" lon="7.949558">
        <ele>298.609588</ele>
        <time>2021-11-07T14:13:39.757Z</time>
      </trkpt>
      <trkpt lat="47.544239" lon="7.949202">
        <ele>298.787822</ele>
        <time>2021-11-07T14:13:44.720Z</time>
      </trkpt>
      <trkpt lat="47.543864" lon="7.948694">
        <ele>299.353626</ele>
        <time>2021-11-07T14:13:52.683Z</time>
      </trkpt>
      <trkpt lat="47.543760" lon="7.948548">
        <ele>299.574694</ele>
        <time>2021-11-07T14:13:54.925Z</time>
      </trkpt>
      <trkpt lat="47.543579" lon="7.948287">
        <ele>299.964417</ele>
        <time>2021-11-07T14:14:00.643Z</time>
      </trkpt>
      <trkpt lat="47.543532" lon="7.948214">
        <ele>300.069486</ele>
        <time>2021-11-07T14:14:01.769Z</time>
      </trkpt>
      <trkpt lat="47.543435" lon="7.948000">
        <ele>300.337956</ele>
        <time>2021-11-07T14:14:04.831Z</time>
      </trkpt>
      <trkpt lat="47.543407" lon="7.947938">
        <ele>300.415649</ele>
        <time>2021-11-07T14:14:06.688Z</time>
      </trkpt>
      <trkpt lat="47.543280" lon="7.947656">
        <ele>300.768722</ele>
        <time>2021-11-07T14:14:11.175Z</time>
      </trkpt>
      <trkpt lat="47.543142" lon="7.947250">
        <ele>301.242161</ele>
        <time>2021-11-07T14:14:18.639Z</time>
      </trkpt>
      <trkpt lat="47.543086" lon="7.947052">
        <ele>301.465752</ele>
        <time>2021-11-07T14:14:22.068Z</time>
      </trkpt>
      <trkpt lat="47.543056" lon="7.946935">
        <ele>301.596105</ele>
        <time>2021-11-07T14:14:24.910Z</time>
      </trkpt>
      <trkpt lat="47.543045" lon="7.946881">
        <ele>301.654852</ele>
        <time>2021-11-07T14:14:26.067Z</time>
      </trkpt>
      <trkpt lat="47.542982" lon="7.946547">
        <ele>302.238537</ele>
        <time>2021-11-07T14:14:31.466Z</time>
      </trkpt>
      <trkpt lat="47.542974" lon="7.946495">
        <ele>302.328977</ele>
        <time>2021-11-07T14:14:33.107Z</time>
      </trkpt>
      <trkpt lat="47.542960" lon="7.946400">
        <ele>302.493868</ele>
        <time>2021-11-07T14:14:35.173Z</time>
      </trkpt>
      <trkpt lat="47.542916" lon="7.945730">
        <ele>303.635384</ele>
        <time>2021-11-07T14:14:47.838Z</time>
      </trkpt>
      <trkpt lat="47.542913" lon="7.945267">
        <ele>304.420552</ele>
        <time>2021-11-07T14:14:56.333Z</time>
      </trkpt>
      <trkpt lat="47.543007" lon="7.943867">
        <ele>306.249285</ele>
        <time>2021-11-07T14:15:17.500Z</time>
      </trkpt>
      <trkpt lat="47.543161" lon="7.942213">
        <ele>306.561770</ele>
        <time>2021-11-07T14:15:35.907Z</time>
      </trkpt>
      <trkpt lat="47.543435" lon="7.940670">
        <ele>305.717810</ele>
        <time>2021-11-07T14:15:48.855Z</time>
      </trkpt>
      <trkpt lat="47.543826" lon="7.939433">
        <ele>304.364353</ele>
        <time>2021-11-07T14:15:59.256Z</time>
      </trkpt>
      <trkpt lat="47.544472" lon="7.937932">
        <ele>302.274806</ele>
        <time>2021-11-07T14:16:12.580Z</time>
      </trkpt>
      <trkpt lat="47.544705" lon="7.937395">
        <ele>301.499029</ele>
        <time>2021-11-07T14:16:17.419Z</time>
      </trkpt>
      <trkpt lat="47.544903" lon="7.936917">
        <ele>300.817491</ele>
        <time>2021-11-07T14:16:21.680Z</time>
      </trkpt>
      <trkpt lat="47.545074" lon="7.936484">
        <ele>300.346238</ele>
        <time>2021-11-07T14:16:25.511Z</time>
      </trkpt>
      <trkpt lat="47.545457" lon="7.935110">
        <ele>298.961601</ele>
        <time>2021-11-07T14:16:36.879Z</time>
      </trkpt>
      <trkpt lat="47.545674" lon="7.933625">
        <ele>298.567256</ele>
        <time>2021-11-07T14:16:49.959Z</time>
      </trkpt>
      <trkpt lat="47.545702" lon="7.933290">
        <ele>298.668554</ele>
        <time>2021-11-07T14:16:53.539Z</time>
      </trkpt>
      <trkpt lat="47.545724" lon="7.932758">
        <ele>298.828501</ele>
        <time>2021-11-07T14:16:59.806Z</time>
      </trkpt>
      <trkpt lat="47.545721" lon="7.931992">
        <ele>299.058373</ele>
        <time>2021-11-07T14:17:09.846Z</time>
      </trkpt>
      <trkpt lat="47.545696" lon="7.931497">
        <ele>299.504912</ele>
        <time>2021-11-07T14:17:17.051Z</time>
      </trkpt>
      <trkpt lat="47.545661" lon="7.930955">
        <ele>300.213360</ele>
        <time>2021-11-07T14:17:25.746Z</time>
      </trkpt>
      <trkpt lat="47.545563" lon="7.929641">
        <ele>301.933489</ele>
        <time>2021-11-07T14:17:48.086Z</time>
      </trkpt>
      <trkpt lat="47.545475" lon="7.928419">
        <ele>302.113149</ele>
        <time>2021-11-07T14:18:04.388Z</time>
      </trkpt>
      <trkpt lat="47.545421" lon="7.927686">
        <ele>301.634988</ele>
        <time>2021-11-07T14:18:10.492Z</time>
      </trkpt>
      <trkpt lat="47.545406" lon="7.927306">
        <ele>301.388144</ele>
        <time>2021-11-07T14:18:13.396Z</time>
      </trkpt>
      <trkpt lat="47.545407" lon="7.927001">
        <ele>301.190354</ele>
        <time>2021-11-07T14:18:15.682Z</time>
      </trkpt>
      <trkpt lat="47.545409" lon="7.926773">
        <ele>301.042487</ele>
        <time>2021-11-07T14:18:17.312Z</time>
      </trkpt>
      <trkpt lat="47.545417" lon="7.925848">
        <ele>299.224790</ele>
        <time>2021-11-07T14:18:23.647Z</time>
      </trkpt>
      <trkpt lat="47.545446" lon="7.925350">
        <ele>297.948760</ele>
        <time>2021-11-07T14:18:26.939Z</time>
      </trkpt>
      <trkpt lat="47.545466" lon="7.924880">
        <ele>296.746551</ele>
        <time>2021-11-07T14:18:29.992Z</time>
      </trkpt>
      <trkpt lat="47.545481" lon="7.924396">
        <ele>295.509682</ele>
        <time>2021-11-07T14:18:33.075Z</time>
      </trkpt>
      <trkpt lat="47.545521" lon="7.923709">
        <ele>293.892511</ele>
        <time>2021-11-07T14:18:37.601Z</time>
      </trkpt>
      <trkpt lat="47.545536" lon="7.923407">
        <ele>293.481585</ele>
        <time>2021-11-07T14:18:39.749Z</time>
      </trkpt>
      <trkpt lat="47.545553" lon="7.923142">
        <ele>293.120356</ele>
        <time>2021-11-07T14:18:41.580Z</time>
      </trkpt>
      <trkpt lat="47.545587" lon="7.922895">
        <ele>292.778276</ele>
        <time>2021-11-07T14:18:43.513Z</time>
      </trkpt>
      <trkpt lat="47.545641" lon="7.922610">
        <ele>292.376580</ele>
        <time>2021-11-07T14:18:45.659Z</time>
      </trkpt>
      <trkpt lat="47.545690" lon="7.922369">
        <ele>292.035026</ele>
        <time>2021-11-07T14:18:47.665Z</time>
      </trkpt>
      <trkpt lat="47.545699" lon="7.922325">
        <ele>291.972637</ele>
        <time>2021-11-07T14:18:47.959Z</time>
      </trkpt>
      <trkpt lat="47.545714" lon="7.922249">
        <ele>291.865186</ele>
        <time>2021-11-07T14:18:48.549Z</time>
      </trkpt>
      <trkpt lat="47.545778" lon="7.921947">
        <ele>291.435646</ele>
        <time>2021-11-07T14:18:51.252Z</time>
      </trkpt>
      <trkpt lat="47.545810" lon="7.921755">
        <ele>291.167276</ele>
        <time>2021-11-07T14:18:52.733Z</time>
      </trkpt>
      <trkpt lat="47.545881" lon="7.921096">
        <ele>290.409087</ele>
        <time>2021-11-07T14:18:58.195Z</time>
      </trkpt>
      <trkpt lat="47.545913" lon="7.920765">
        <ele>290.332571</ele>
        <time>2021-11-07T14:19:01.087Z</time>
      </trkpt>
      <trkpt lat="47.545973" lon="7.920313">
        <ele>290.227159</ele>
        <time>2021-11-07T14:19:05.558Z</time>
      </trkpt>
      <trkpt lat="47.546128" lon="7.919617">
        <ele>290.059449</ele>
        <time>2021-11-07T14:19:12.798Z</time>
      </trkpt>
      <trkpt lat="47.546262" lon="7.919081">
        <ele>289.928654</ele>
        <time>2021-11-07T14:19:18.847Z</time>
      </trkpt>
      <trkpt lat="47.546821" lon="7.916867">
        <ele>289.090512</ele>
        <time>2021-11-07T14:19:39.515Z</time>
      </trkpt>
      <trkpt lat="47.547032" lon="7.916218">
        <ele>288.814696</ele>
        <time>2021-11-07T14:19:45.822Z</time>
      </trkpt>
      <trkpt lat="47.547091" lon="7.916039">
        <ele>288.804495</ele>
        <time>2021-11-07T14:19:47.596Z</time>
      </trkpt>
      <trkpt lat="47.547113" lon="7.915971">
        <ele>288.802673</ele>
        <time>2021-11-07T14:19:48.186Z</time>
      </trkpt>
      <trkpt lat="47.547423" lon="7.915080">
        <ele>288.778449</ele>
        <time>2021-11-07T14:19:57.673Z</time>
      </trkpt>
      <trkpt lat="47.547994" lon="7.913433">
        <ele>289.013408</ele>
        <time>2021-11-07T14:20:17.378Z</time>
      </trkpt>
      <trkpt lat="47.548027" lon="7.913334">
        <ele>289.079551</ele>
        <time>2021-11-07T14:20:18.737Z</time>
      </trkpt>
      <trkpt lat="47.548412" lon="7.912168">
        <ele>289.857124</ele>
        <time>2021-11-07T14:20:35.140Z</time>
      </trkpt>
      <trkpt lat="47.549012" lon="7.910340">
        <ele>291.346031</ele>
        <time>2021-11-07T14:21:02.098Z</time>
      </trkpt>
      <trkpt lat="47.549102" lon="7.910058">
        <ele>291.601955</ele>
        <time>2021-11-07T14:21:06.273Z</time>
      </trkpt>
      <trkpt lat="47.549195" lon="7.909756">
        <ele>291.874297</ele>
        <time>2021-11-07T14:21:10.517Z</time>
      </trkpt>
      <trkpt lat="47.549205" lon="7.909723">
        <ele>291.903975</ele>
        <time>2021-11-07T14:21:11.121Z</time>
      </trkpt>
      <trkpt lat="47.549332" lon="7.909303">
        <ele>292.281557</ele>
        <time>2021-11-07T14:21:16.931Z</time>
      </trkpt>
      <trkpt lat="47.549520" lon="7.908678">
        <ele>293.055561</ele>
        <time>2021-11-07T14:21:25.898Z</time>
      </trkpt>
      <trkpt lat="47.549539" lon="7.908625">
        <ele>293.137948</ele>
        <time>2021-11-07T14:21:26.615Z</time>
      </trkpt>
      <trkpt lat="47.550497" lon="7.905558">
        <ele>298.694634</ele>
        <time>2021-11-07T14:22:21.437Z</time>
      </trkpt>
      <trkpt lat="47.550283" lon="7.905413">
        <ele>299.449037</ele>
        <time>2021-11-07T14:22:29.603Z</time>
      </trkpt>
      <trkpt lat="47.550067" lon="7.905245">
        <ele>300.231131</ele>
        <time>2021-11-07T14:22:38.289Z</time>
      </trkpt>
      <trkpt lat="47.549867" lon="7.905155">
        <ele>300.901235</ele>
        <time>2021-11-07T14:22:45.918Z</time>
      </trkpt>
      <trkpt lat="47.549868" lon="7.905010">
        <ele>301.215006</ele>
        <time>2021-11-07T14:22:49.323Z</time>
      </trkpt>
      <trkpt lat="47.550025" lon="7.904774">
        <ele>301.932024</ele>
        <time>2021-11-07T14:22:57.475Z</time>
      </trkpt>
      <trkpt lat="47.550302" lon="7.904164">
        <ele>303.795224</ele>
        <time>2021-11-07T14:23:15.774Z</time>
      </trkpt>
      <trkpt lat="47.550498" lon="7.903445">
        <ele>305.763975</ele>
        <time>2021-11-07T14:23:35.345Z</time>
      </trkpt>
      <trkpt lat="47.550688" lon="7.902451">
        <ele>308.386904</ele>
        <time>2021-11-07T14:23:57.894Z</time>
      </trkpt>
      <trkpt lat="47.550757" lon="7.901591">
        <ele>310.758470</ele>
        <time>2021-11-07T14:24:17.690Z</time>
      </trkpt>
      <trkpt lat="47.550769" lon="7.901362">
        <ele>311.395556</ele>
        <time>2021-11-07T14:24:23.598Z</time>
      </trkpt>
      <trkpt lat="47.550801" lon="7.900244">
        <ele>314.499323</ele>
        <time>2021-11-07T14:24:47.995Z</time>
      </trkpt>
      <trkpt lat="47.550819" lon="7.898109">
        <ele>319.974541</ele>
        <time>2021-11-07T14:25:35.655Z</time>
      </trkpt>
      <trkpt lat="47.550784" lon="7.897776">
        <ele>320.812399</ele>
        <time>2021-11-07T14:25:42.348Z</time>
      </trkpt>
      <trkpt lat="47.550648" lon="7.896481">
        <ele>323.177578</ele>
        <time>2021-11-07T14:26:03.326Z</time>
      </trkpt>
      <trkpt lat="47.550639" lon="7.896345">
        <ele>323.290198</ele>
        <time>2021-11-07T14:26:05.792Z</time>
      </trkpt>
      <trkpt lat="47.550660" lon="7.896255">
        <ele>323.368677</ele>
        <time>2021-11-07T14:26:06.625Z</time>
      </trkpt>
      <trkpt lat="47.550838" lon="7.895509">
        <ele>324.020766</ele>
        <time>2021-11-07T14:26:16.616Z</time>
      </trkpt>
      <trkpt lat="47.550878" lon="7.895158">
        <ele>324.314130</ele>
        <time>2021-11-07T14:26:20.411Z</time>
      </trkpt>
      <trkpt lat="47.550908" lon="7.894308">
        <ele>325.121109</ele>
        <time>2021-11-07T14:26:30.538Z</time>
      </trkpt>
      <trkpt lat="47.550892" lon="7.893176">
        <ele>327.217364</ele>
        <time>2021-11-07T14:26:45.255Z</time>
      </trkpt>
      <trkpt lat="47.550904" lon="7.891725">
        <ele>329.949660</ele>
        <time>2021-11-07T14:27:15.017Z</time>
      </trkpt>
      <trkpt lat="47.550915" lon="7.890600">
        <ele>334.463202</ele>
        <time>2021-11-07T14:27:43.858Z</time>
      </trkpt>
      <trkpt lat="47.550833" lon="7.889069">
        <ele>340.624900</ele>
        <time>2021-11-07T14:28:26.491Z</time>
      </trkpt>
      <trkpt lat="47.550831" lon="7.888611">
        <ele>342.478289</ele>
        <time>2021-11-07T14:28:39.061Z</time>
      </trkpt>
      <trkpt lat="47.550789" lon="7.887816">
        <ele>345.705190</ele>
        <time>2021-11-07T14:28:59.673Z</time>
      </trkpt>
      <trkpt lat="47.550758" lon="7.887295">
        <ele>347.821656</ele>
        <time>2021-11-07T14:29:13.495Z</time>
      </trkpt>
      <trkpt lat="47.550677" lon="7.886476">
        <ele>351.171234</ele>
        <time>2021-11-07T14:29:34.983Z</time>
      </trkpt>
      <trkpt lat="47.550548" lon="7.885799">
        <ele>353.523643</ele>
        <time>2021-11-07T14:29:52.186Z</time>
      </trkpt>
      <trkpt lat="47.550391" lon="7.885109">
        <ele>355.926536</ele>
        <time>2021-11-07T14:30:09.824Z</time>
      </trkpt>
      <trkpt lat="47.550332" lon="7.884727">
        <ele>357.219714</ele>
        <time>2021-11-07T14:30:18.514Z</time>
      </trkpt>
      <trkpt lat="47.550234" lon="7.883221">
        <ele>361.652553</ele>
        <time>2021-11-07T14:30:51.346Z</time>
      </trkpt>
      <trkpt lat="47.549927" lon="7.881490">
        <ele>365.968045</ele>
        <time>2021-11-07T14:31:23.822Z</time>
      </trkpt>
      <trkpt lat="47.549726" lon="7.880786">
        <ele>368.031842</ele>
        <time>2021-11-07T14:31:39.737Z</time>
      </trkpt>
      <trkpt lat="47.549647" lon="7.880541">
        <ele>368.801915</ele>
        <time>2021-11-07T14:31:45.712Z</time>
      </trkpt>
      <trkpt lat="47.549327" lon="7.879547">
        <ele>371.925292</ele>
        <time>2021-11-07T14:32:09.581Z</time>
      </trkpt>
      <trkpt lat="47.549318" lon="7.879398">
        <ele>372.349567</ele>
        <time>2021-11-07T14:32:12.729Z</time>
      </trkpt>
      <trkpt lat="47.549140" lon="7.879391">
        <ele>373.097782</ele>
        <time>2021-11-07T14:32:19.630Z</time>
      </trkpt>
      <trkpt lat="47.548718" lon="7.879258">
        <ele>374.585272</ele>
        <time>2021-11-07T14:32:33.315Z</time>
      </trkpt>
      <trkpt lat="47.548422" lon="7.878959">
        <ele>375.473598</ele>
        <time>2021-11-07T14:32:43.820Z</time>
      </trkpt>
      <trkpt lat="47.548234" lon="7.878638">
        <ele>376.184894</ele>
        <time>2021-11-07T14:32:52.194Z</time>
      </trkpt>
      <trkpt lat="47.547992" lon="7.877974">
        <ele>377.447864</ele>
        <time>2021-11-07T14:33:05.276Z</time>
      </trkpt>
      <trkpt lat="47.547574" lon="7.876801">
        <ele>377.595438</ele>
        <time>2021-11-07T14:33:19.039Z</time>
      </trkpt>
      <trkpt lat="47.547126" lon="7.875801">
        <ele>375.788986</ele>
        <time>2021-11-07T14:33:27.822Z</time>
      </trkpt>
      <trkpt lat="47.546309" lon="7.874154">
        <ele>369.769843</ele>
        <time>2021-11-07T14:33:41.010Z</time>
      </trkpt>
      <trkpt lat="47.546135" lon="7.873859">
        <ele>368.243955</ele>
        <time>2021-11-07T14:33:43.392Z</time>
      </trkpt>
      <trkpt lat="47.546077" lon="7.873763">
        <ele>367.742134</ele>
        <time>2021-11-07T14:33:44.203Z</time>
      </trkpt>
      <trkpt lat="47.545934" lon="7.873549">
        <ele>366.569251</ele>
        <time>2021-11-07T14:33:46.026Z</time>
      </trkpt>
      <trkpt lat="47.545746" lon="7.873302">
        <ele>365.119280</ele>
        <time>2021-11-07T14:33:48.294Z</time>
      </trkpt>
      <trkpt lat="47.545515" lon="7.873015">
        <ele>363.251890</ele>
        <time>2021-11-07T14:33:50.991Z</time>
      </trkpt>
      <trkpt lat="47.545478" lon="7.872968">
        <ele>362.926163</ele>
        <time>2021-11-07T14:33:51.433Z</time>
      </trkpt>
      <trkpt lat="47.545388" lon="7.872853">
        <ele>362.131867</ele>
        <time>2021-11-07T14:33:52.488Z</time>
      </trkpt>
      <trkpt lat="47.545375" lon="7.872836">
        <ele>362.015982</ele>
        <time>2021-11-07T14:33:52.632Z</time>
      </trkpt>
      <trkpt lat="47.545131" lon="7.872664">
        <ele>360.210120</ele>
        <time>2021-11-07T14:33:55.100Z</time>
      </trkpt>
      <trkpt lat="47.544883" lon="7.872555">
        <ele>358.481313</ele>
        <time>2021-11-07T14:33:57.415Z</time>
      </trkpt>
      <trkpt lat="47.544390" lon="7.872423">
        <ele>355.133173</ele>
        <time>2021-11-07T14:34:01.893Z</time>
      </trkpt>
      <trkpt lat="47.543332" lon="7.872237">
        <ele>349.535354</ele>
        <time>2021-11-07T14:34:11.756Z</time>
      </trkpt>
      <trkpt lat="47.543251" lon="7.872152">
        <ele>349.115116</ele>
        <time>2021-11-07T14:34:12.758Z</time>
      </trkpt>
      <trkpt lat="47.543233" lon="7.872082">
        <ele>348.901047</ele>
        <time>2021-11-07T14:34:13.183Z</time>
      </trkpt>
      <trkpt lat="47.543180" lon="7.872106">
        <ele>348.666420</ele>
        <time>2021-11-07T14:34:13.783Z</time>
      </trkpt>
      <trkpt lat="47.543013" lon="7.872182">
        <ele>347.926805</ele>
        <time>2021-11-07T14:34:15.588Z</time>
      </trkpt>
      <trkpt lat="47.542919" lon="7.872226">
        <ele>347.509457</ele>
        <time>2021-11-07T14:34:16.553Z</time>
      </trkpt>
      <trkpt lat="47.542814" lon="7.872280">
        <ele>347.038907</ele>
        <time>2021-11-07T14:34:17.631Z</time>
      </trkpt>
      <trkpt lat="47.542714" lon="7.872334">
        <ele>346.588301</ele>
        <time>2021-11-07T14:34:18.787Z</time>
      </trkpt>
      <trkpt lat="47.542537" lon="7.872430">
        <ele>345.790315</ele>
        <time>2021-11-07T14:34:20.577Z</time>
      </trkpt>
      <trkpt lat="47.542436" lon="7.872494">
        <ele>345.325249</ele>
        <time>2021-11-07T14:34:21.838Z</time>
      </trkpt>
      <trkpt lat="47.542351" lon="7.872540">
        <ele>344.942136</ele>
        <time>2021-11-07T14:34:22.813Z</time>
      </trkpt>
      <trkpt lat="47.542351" lon="7.872540">
        <ele>344.942136</ele>
        <time>2021-11-07T14:34:22.819Z</time>
      </trkpt>
      <trkpt lat="47.542351" lon="7.872540">
        <ele>344.942136</ele>
        <time>2021-11-07T14:34:22.831Z</time>
      </trkpt>
      <trkpt lat="47.542351" lon="7.872540">
        <ele>344.942136</ele>
        <time>2021-11-07T14:34:22.831Z</time>
      </trkpt>
      <trkpt lat="47.541908" lon="7.871434">
        <ele>344.552051</ele>
        <time>2021-11-07T14:34:38.924Z</time>
      </trkpt>
      <trkpt lat="47.541464" lon="7.870327">
        <ele>344.552051</ele>
        <time>2021-11-07T14:34:55.034Z</time>
      </trkpt>
    </trkseg>
  </trk>
</gpx>